<?xml version="1.0" encoding="UTF-8" standalone="no" ?>
<gpx xmlns="http://www.topografix.com/GPX/1/1" xmlns:xsi="http://www.w3.org/2001/XMLSchema-instance" xsi:schemaLocation="http://www.topografix.com/GPX/1/1 http://www.topografix.com/GPX/1/1/gpx.xsd" version="1.1" creator="VisuGPX - https://www.visugpx.com">
  <metadata>
    <name>9548399-2019 j1 decouverte</name>
  </metadata>
  <trk>
    <name><![CDATA[9548399-2019 j1 decouverte]]></name>
    <trkseg>
      <trkpt lat="46.07832" lon="6.72618">
        <ele>705</ele>
        <time>2019-05-24T06:32:57Z</time>
      </trkpt>
      <trkpt lat="46.07863" lon="6.72539">
        <ele>703</ele>
        <time>2019-05-24T06:33:08Z</time>
      </trkpt>
      <trkpt lat="46.07809" lon="6.72494">
        <ele>702</ele>
        <time>2019-05-24T06:33:19Z</time>
      </trkpt>
      <trkpt lat="46.07797" lon="6.72476">
        <ele>701</ele>
        <time>2019-05-24T06:33:22Z</time>
      </trkpt>
      <trkpt lat="46.07791" lon="6.7246">
        <ele>701</ele>
        <time>2019-05-24T06:33:25Z</time>
      </trkpt>
      <trkpt lat="46.07665" lon="6.72013">
        <ele>700</ele>
        <time>2019-05-24T06:34:24Z</time>
      </trkpt>
      <trkpt lat="46.07663" lon="6.71998">
        <ele>700</ele>
        <time>2019-05-24T06:34:26Z</time>
      </trkpt>
      <trkpt lat="46.07664" lon="6.71979">
        <ele>700</ele>
        <time>2019-05-24T06:34:28Z</time>
      </trkpt>
      <trkpt lat="46.07682" lon="6.71945">
        <ele>698</ele>
        <time>2019-05-24T06:34:34Z</time>
      </trkpt>
      <trkpt lat="46.07688" lon="6.71938">
        <ele>698</ele>
        <time>2019-05-24T06:34:35Z</time>
      </trkpt>
      <trkpt lat="46.07693" lon="6.71936">
        <ele>697</ele>
        <time>2019-05-24T06:34:36Z</time>
      </trkpt>
      <trkpt lat="46.07698" lon="6.7193">
        <ele>697</ele>
        <time>2019-05-24T06:34:37Z</time>
      </trkpt>
      <trkpt lat="46.07699" lon="6.71923">
        <ele>697</ele>
        <time>2019-05-24T06:34:38Z</time>
      </trkpt>
      <trkpt lat="46.07698" lon="6.71916">
        <ele>697</ele>
        <time>2019-05-24T06:34:39Z</time>
      </trkpt>
      <trkpt lat="46.07691" lon="6.71907">
        <ele>697</ele>
        <time>2019-05-24T06:34:41Z</time>
      </trkpt>
      <trkpt lat="46.07685" lon="6.71908">
        <ele>697</ele>
        <time>2019-05-24T06:34:42Z</time>
      </trkpt>
      <trkpt lat="46.07672" lon="6.71902">
        <ele>698</ele>
        <time>2019-05-24T06:34:44Z</time>
      </trkpt>
      <trkpt lat="46.07644" lon="6.71882">
        <ele>707</ele>
        <time>2019-05-24T06:34:50Z</time>
      </trkpt>
      <trkpt lat="46.07599" lon="6.71838">
        <ele>726</ele>
        <time>2019-05-24T06:34:59Z</time>
      </trkpt>
      <trkpt lat="46.07591" lon="6.71834">
        <ele>730</ele>
        <time>2019-05-24T06:35:01Z</time>
      </trkpt>
      <trkpt lat="46.07586" lon="6.71828">
        <ele>733</ele>
        <time>2019-05-24T06:35:02Z</time>
      </trkpt>
      <trkpt lat="46.07585" lon="6.71812">
        <ele>736</ele>
        <time>2019-05-24T06:35:04Z</time>
      </trkpt>
      <trkpt lat="46.07607" lon="6.7165">
        <ele>739</ele>
        <time>2019-05-24T06:35:24Z</time>
      </trkpt>
      <trkpt lat="46.0761" lon="6.71613">
        <ele>738</ele>
        <time>2019-05-24T06:35:29Z</time>
      </trkpt>
      <trkpt lat="46.0761" lon="6.7158">
        <ele>739</ele>
        <time>2019-05-24T06:35:33Z</time>
      </trkpt>
      <trkpt lat="46.07606" lon="6.71557">
        <ele>742</ele>
        <time>2019-05-24T06:35:36Z</time>
      </trkpt>
      <trkpt lat="46.07587" lon="6.71508">
        <ele>753</ele>
        <time>2019-05-24T06:35:43Z</time>
      </trkpt>
      <trkpt lat="46.07583" lon="6.71492">
        <ele>754</ele>
        <time>2019-05-24T06:35:45Z</time>
      </trkpt>
      <trkpt lat="46.07583" lon="6.71476">
        <ele>753</ele>
        <time>2019-05-24T06:35:47Z</time>
      </trkpt>
      <trkpt lat="46.07592" lon="6.71415">
        <ele>743</ele>
        <time>2019-05-24T06:35:55Z</time>
      </trkpt>
      <trkpt lat="46.07592" lon="6.71399">
        <ele>743</ele>
        <time>2019-05-24T06:35:57Z</time>
      </trkpt>
      <trkpt lat="46.07588" lon="6.71391">
        <ele>744</ele>
        <time>2019-05-24T06:35:58Z</time>
      </trkpt>
      <trkpt lat="46.07582" lon="6.71387">
        <ele>746</ele>
        <time>2019-05-24T06:35:59Z</time>
      </trkpt>
      <trkpt lat="46.07576" lon="6.71387">
        <ele>748</ele>
        <time>2019-05-24T06:36:00Z</time>
      </trkpt>
      <trkpt lat="46.0757" lon="6.71391">
        <ele>751</ele>
        <time>2019-05-24T06:36:01Z</time>
      </trkpt>
      <trkpt lat="46.07566" lon="6.71399">
        <ele>754</ele>
        <time>2019-05-24T06:36:02Z</time>
      </trkpt>
      <trkpt lat="46.07563" lon="6.71415">
        <ele>757</ele>
        <time>2019-05-24T06:36:05Z</time>
      </trkpt>
      <trkpt lat="46.07564" lon="6.71447">
        <ele>760</ele>
        <time>2019-05-24T06:36:08Z</time>
      </trkpt>
      <trkpt lat="46.07561" lon="6.71461">
        <ele>763</ele>
        <time>2019-05-24T06:36:10Z</time>
      </trkpt>
      <trkpt lat="46.07557" lon="6.71466">
        <ele>766</ele>
        <time>2019-05-24T06:36:11Z</time>
      </trkpt>
      <trkpt lat="46.07548" lon="6.71465">
        <ele>770</ele>
        <time>2019-05-24T06:36:13Z</time>
      </trkpt>
      <trkpt lat="46.07542" lon="6.71456">
        <ele>772</ele>
        <time>2019-05-24T06:36:14Z</time>
      </trkpt>
      <trkpt lat="46.07539" lon="6.71441">
        <ele>772</ele>
        <time>2019-05-24T06:36:16Z</time>
      </trkpt>
      <trkpt lat="46.0754" lon="6.71328">
        <ele>756</ele>
        <time>2019-05-24T06:36:30Z</time>
      </trkpt>
      <trkpt lat="46.07551" lon="6.71094">
        <ele>756</ele>
        <time>2019-05-24T06:36:59Z</time>
      </trkpt>
      <trkpt lat="46.07532" lon="6.71016">
        <ele>760</ele>
        <time>2019-05-24T06:37:09Z</time>
      </trkpt>
      <trkpt lat="46.07516" lon="6.70892">
        <ele>764</ele>
        <time>2019-05-24T06:37:25Z</time>
      </trkpt>
      <trkpt lat="46.07508" lon="6.70765">
        <ele>767</ele>
        <time>2019-05-24T06:37:41Z</time>
      </trkpt>
      <trkpt lat="46.07447" lon="6.70657">
        <ele>777</ele>
        <time>2019-05-24T06:37:58Z</time>
      </trkpt>
      <trkpt lat="46.07443" lon="6.70627">
        <ele>779</ele>
        <time>2019-05-24T06:38:02Z</time>
      </trkpt>
      <trkpt lat="46.07445" lon="6.70606">
        <ele>780</ele>
        <time>2019-05-24T06:38:04Z</time>
      </trkpt>
      <trkpt lat="46.07452" lon="6.70585">
        <ele>780</ele>
        <time>2019-05-24T06:38:07Z</time>
      </trkpt>
      <trkpt lat="46.0747" lon="6.70543">
        <ele>780</ele>
        <time>2019-05-24T06:38:13Z</time>
      </trkpt>
      <trkpt lat="46.07476" lon="6.70514">
        <ele>781</ele>
        <time>2019-05-24T06:38:17Z</time>
      </trkpt>
      <trkpt lat="46.07474" lon="6.70476">
        <ele>782</ele>
        <time>2019-05-24T06:38:22Z</time>
      </trkpt>
      <trkpt lat="46.07465" lon="6.70421">
        <ele>785</ele>
        <time>2019-05-24T06:38:29Z</time>
      </trkpt>
      <trkpt lat="46.07474" lon="6.70418">
        <ele>784</ele>
        <time>2019-05-24T06:38:30Z</time>
      </trkpt>
      <trkpt lat="46.075" lon="6.70421">
        <ele>780</ele>
        <time>2019-05-24T06:38:35Z</time>
      </trkpt>
      <trkpt lat="46.07516" lon="6.70415">
        <ele>779</ele>
        <time>2019-05-24T06:38:38Z</time>
      </trkpt>
      <trkpt lat="46.07529" lon="6.70397">
        <ele>780</ele>
        <time>2019-05-24T06:38:41Z</time>
      </trkpt>
      <trkpt lat="46.07538" lon="6.70375">
        <ele>782</ele>
        <time>2019-05-24T06:38:44Z</time>
      </trkpt>
      <trkpt lat="46.07557" lon="6.70256">
        <ele>782</ele>
        <time>2019-05-24T06:38:59Z</time>
      </trkpt>
      <trkpt lat="46.07572" lon="6.70216">
        <ele>778</ele>
        <time>2019-05-24T06:39:05Z</time>
      </trkpt>
      <trkpt lat="46.07612" lon="6.70158">
        <ele>764</ele>
        <time>2019-05-24T06:39:15Z</time>
      </trkpt>
      <trkpt lat="46.07622" lon="6.70128">
        <ele>759</ele>
        <time>2019-05-24T06:39:19Z</time>
      </trkpt>
      <trkpt lat="46.07626" lon="6.70085">
        <ele>754</ele>
        <time>2019-05-24T06:39:24Z</time>
      </trkpt>
      <trkpt lat="46.07623" lon="6.7006">
        <ele>752</ele>
        <time>2019-05-24T06:39:28Z</time>
      </trkpt>
      <trkpt lat="46.07605" lon="6.70004">
        <ele>752</ele>
        <time>2019-05-24T06:39:35Z</time>
      </trkpt>
      <trkpt lat="46.07597" lon="6.69975">
        <ele>752</ele>
        <time>2019-05-24T06:39:39Z</time>
      </trkpt>
      <trkpt lat="46.07592" lon="6.69936">
        <ele>752</ele>
        <time>2019-05-24T06:39:44Z</time>
      </trkpt>
      <trkpt lat="46.07579" lon="6.69893">
        <ele>755</ele>
        <time>2019-05-24T06:39:50Z</time>
      </trkpt>
      <trkpt lat="46.07566" lon="6.69864">
        <ele>757</ele>
        <time>2019-05-24T06:39:54Z</time>
      </trkpt>
      <trkpt lat="46.07545" lon="6.69785">
        <ele>750</ele>
        <time>2019-05-24T06:40:04Z</time>
      </trkpt>
      <trkpt lat="46.0754" lon="6.69706">
        <ele>739</ele>
        <time>2019-05-24T06:40:14Z</time>
      </trkpt>
      <trkpt lat="46.07539" lon="6.6967">
        <ele>734</ele>
        <time>2019-05-24T06:40:19Z</time>
      </trkpt>
      <trkpt lat="46.07545" lon="6.69619">
        <ele>729</ele>
        <time>2019-05-24T06:40:25Z</time>
      </trkpt>
      <trkpt lat="46.07544" lon="6.69562">
        <ele>727</ele>
        <time>2019-05-24T06:40:32Z</time>
      </trkpt>
      <trkpt lat="46.07548" lon="6.69516">
        <ele>725</ele>
        <time>2019-05-24T06:40:38Z</time>
      </trkpt>
      <trkpt lat="46.07555" lon="6.69504">
        <ele>723</ele>
        <time>2019-05-24T06:40:40Z</time>
      </trkpt>
      <trkpt lat="46.07601" lon="6.69461">
        <ele>711</ele>
        <time>2019-05-24T06:40:50Z</time>
      </trkpt>
      <trkpt lat="46.07611" lon="6.69445">
        <ele>710</ele>
        <time>2019-05-24T06:40:52Z</time>
      </trkpt>
      <trkpt lat="46.07692" lon="6.69264">
        <ele>700</ele>
        <time>2019-05-24T06:41:19Z</time>
      </trkpt>
      <trkpt lat="46.07719" lon="6.69214">
        <ele>700</ele>
        <time>2019-05-24T06:41:27Z</time>
      </trkpt>
      <trkpt lat="46.07762" lon="6.69151">
        <ele>701</ele>
        <time>2019-05-24T06:41:38Z</time>
      </trkpt>
      <trkpt lat="46.07786" lon="6.69111">
        <ele>702</ele>
        <time>2019-05-24T06:41:44Z</time>
      </trkpt>
      <trkpt lat="46.07801" lon="6.69095">
        <ele>702</ele>
        <time>2019-05-24T06:41:47Z</time>
      </trkpt>
      <trkpt lat="46.07831" lon="6.6907">
        <ele>703</ele>
        <time>2019-05-24T06:41:54Z</time>
      </trkpt>
      <trkpt lat="46.07842" lon="6.69037">
        <ele>705</ele>
        <time>2019-05-24T06:41:58Z</time>
      </trkpt>
      <trkpt lat="46.07849" lon="6.68971">
        <ele>710</ele>
        <time>2019-05-24T06:42:06Z</time>
      </trkpt>
      <trkpt lat="46.07863" lon="6.68888">
        <ele>716</ele>
        <time>2019-05-24T06:42:17Z</time>
      </trkpt>
      <trkpt lat="46.07878" lon="6.68832">
        <ele>719</ele>
        <time>2019-05-24T06:42:24Z</time>
      </trkpt>
      <trkpt lat="46.07919" lon="6.68714">
        <ele>714</ele>
        <time>2019-05-24T06:42:41Z</time>
      </trkpt>
      <trkpt lat="46.07945" lon="6.68678">
        <ele>711</ele>
        <time>2019-05-24T06:42:47Z</time>
      </trkpt>
      <trkpt lat="46.0796" lon="6.68648">
        <ele>710</ele>
        <time>2019-05-24T06:42:52Z</time>
      </trkpt>
      <trkpt lat="46.0797" lon="6.68617">
        <ele>708</ele>
        <time>2019-05-24T06:42:56Z</time>
      </trkpt>
      <trkpt lat="46.08102" lon="6.68469">
        <ele>696</ele>
        <time>2019-05-24T06:43:25Z</time>
      </trkpt>
      <trkpt lat="46.08113" lon="6.68422">
        <ele>695</ele>
        <time>2019-05-24T06:43:32Z</time>
      </trkpt>
      <trkpt lat="46.08122" lon="6.68396">
        <ele>694</ele>
        <time>2019-05-24T06:43:35Z</time>
      </trkpt>
      <trkpt lat="46.0814" lon="6.68395">
        <ele>692</ele>
        <time>2019-05-24T06:43:38Z</time>
      </trkpt>
      <trkpt lat="46.08144" lon="6.68372">
        <ele>692</ele>
        <time>2019-05-24T06:43:41Z</time>
      </trkpt>
      <trkpt lat="46.08151" lon="6.68344">
        <ele>691</ele>
        <time>2019-05-24T06:43:45Z</time>
      </trkpt>
      <trkpt lat="46.08163" lon="6.68227">
        <ele>687</ele>
        <time>2019-05-24T06:44:00Z</time>
      </trkpt>
      <trkpt lat="46.08165" lon="6.68185">
        <ele>687</ele>
        <time>2019-05-24T06:44:05Z</time>
      </trkpt>
      <trkpt lat="46.08168" lon="6.68152">
        <ele>687</ele>
        <time>2019-05-24T06:44:09Z</time>
      </trkpt>
      <trkpt lat="46.08191" lon="6.68062">
        <ele>686</ele>
        <time>2019-05-24T06:44:21Z</time>
      </trkpt>
      <trkpt lat="46.08212" lon="6.68008">
        <ele>684</ele>
        <time>2019-05-24T06:44:28Z</time>
      </trkpt>
      <trkpt lat="46.08255" lon="6.67857">
        <ele>685</ele>
        <time>2019-05-24T06:44:49Z</time>
      </trkpt>
      <trkpt lat="46.08297" lon="6.67776">
        <ele>686</ele>
        <time>2019-05-24T06:45:01Z</time>
      </trkpt>
      <trkpt lat="46.08308" lon="6.67751">
        <ele>686</ele>
        <time>2019-05-24T06:45:05Z</time>
      </trkpt>
      <trkpt lat="46.08328" lon="6.6772">
        <ele>686</ele>
        <time>2019-05-24T06:45:10Z</time>
      </trkpt>
      <trkpt lat="46.08351" lon="6.67643">
        <ele>687</ele>
        <time>2019-05-24T06:45:20Z</time>
      </trkpt>
      <trkpt lat="46.08383" lon="6.6757">
        <ele>687</ele>
        <time>2019-05-24T06:45:31Z</time>
      </trkpt>
      <trkpt lat="46.08397" lon="6.67534">
        <ele>687</ele>
        <time>2019-05-24T06:45:36Z</time>
      </trkpt>
      <trkpt lat="46.08407" lon="6.67501">
        <ele>686</ele>
        <time>2019-05-24T06:45:40Z</time>
      </trkpt>
      <trkpt lat="46.08425" lon="6.67434">
        <ele>681</ele>
        <time>2019-05-24T06:45:49Z</time>
      </trkpt>
      <trkpt lat="46.0843" lon="6.67372">
        <ele>678</ele>
        <time>2019-05-24T06:45:57Z</time>
      </trkpt>
      <trkpt lat="46.08435" lon="6.67353">
        <ele>678</ele>
        <time>2019-05-24T06:46:00Z</time>
      </trkpt>
      <trkpt lat="46.08455" lon="6.67311">
        <ele>676</ele>
        <time>2019-05-24T06:46:06Z</time>
      </trkpt>
      <trkpt lat="46.08463" lon="6.67284">
        <ele>676</ele>
        <time>2019-05-24T06:46:09Z</time>
      </trkpt>
      <trkpt lat="46.08474" lon="6.67243">
        <ele>675</ele>
        <time>2019-05-24T06:46:15Z</time>
      </trkpt>
      <trkpt lat="46.08481" lon="6.672">
        <ele>675</ele>
        <time>2019-05-24T06:46:20Z</time>
      </trkpt>
      <trkpt lat="46.08487" lon="6.67179">
        <ele>674</ele>
        <time>2019-05-24T06:46:23Z</time>
      </trkpt>
      <trkpt lat="46.08493" lon="6.67165">
        <ele>672</ele>
        <time>2019-05-24T06:46:25Z</time>
      </trkpt>
      <trkpt lat="46.08538" lon="6.67092">
        <ele>672</ele>
        <time>2019-05-24T06:46:37Z</time>
      </trkpt>
      <trkpt lat="46.08548" lon="6.67065">
        <ele>671</ele>
        <time>2019-05-24T06:46:41Z</time>
      </trkpt>
      <trkpt lat="46.08567" lon="6.67023">
        <ele>670</ele>
        <time>2019-05-24T06:46:47Z</time>
      </trkpt>
      <trkpt lat="46.08642" lon="6.66889">
        <ele>669</ele>
        <time>2019-05-24T06:47:08Z</time>
      </trkpt>
      <trkpt lat="46.08662" lon="6.66833">
        <ele>667</ele>
        <time>2019-05-24T06:47:16Z</time>
      </trkpt>
      <trkpt lat="46.08665" lon="6.66834">
        <ele>666</ele>
        <time>2019-05-24T06:47:17Z</time>
      </trkpt>
      <trkpt lat="46.08672" lon="6.66828">
        <ele>666</ele>
        <time>2019-05-24T06:47:18Z</time>
      </trkpt>
      <trkpt lat="46.08674" lon="6.66821">
        <ele>667</ele>
        <time>2019-05-24T06:47:19Z</time>
      </trkpt>
      <trkpt lat="46.08671" lon="6.6681">
        <ele>667</ele>
        <time>2019-05-24T06:47:21Z</time>
      </trkpt>
      <trkpt lat="46.08668" lon="6.66808">
        <ele>667</ele>
        <time>2019-05-24T06:47:21Z</time>
      </trkpt>
      <trkpt lat="46.08712" lon="6.66623">
        <ele>672</ele>
        <time>2019-05-24T06:47:45Z</time>
      </trkpt>
      <trkpt lat="46.08743" lon="6.66508">
        <ele>664</ele>
        <time>2019-05-24T06:48:01Z</time>
      </trkpt>
      <trkpt lat="46.08942" lon="6.66034">
        <ele>655</ele>
        <time>2019-05-24T06:49:09Z</time>
      </trkpt>
      <trkpt lat="46.0898" lon="6.65941">
        <ele>655</ele>
        <time>2019-05-24T06:49:22Z</time>
      </trkpt>
      <trkpt lat="46.09035" lon="6.65707">
        <ele>655</ele>
        <time>2019-05-24T06:49:53Z</time>
      </trkpt>
      <trkpt lat="46.0905" lon="6.65668">
        <ele>654</ele>
        <time>2019-05-24T06:49:58Z</time>
      </trkpt>
      <trkpt lat="46.0909" lon="6.65587">
        <ele>653</ele>
        <time>2019-05-24T06:50:10Z</time>
      </trkpt>
      <trkpt lat="46.09108" lon="6.65543">
        <ele>651</ele>
        <time>2019-05-24T06:50:17Z</time>
      </trkpt>
      <trkpt lat="46.09119" lon="6.65499">
        <ele>650</ele>
        <time>2019-05-24T06:50:23Z</time>
      </trkpt>
      <trkpt lat="46.09231" lon="6.64951">
        <ele>652</ele>
        <time>2019-05-24T06:51:33Z</time>
      </trkpt>
      <trkpt lat="46.09272" lon="6.64767">
        <ele>648</ele>
        <time>2019-05-24T06:51:57Z</time>
      </trkpt>
      <trkpt lat="46.09282" lon="6.64717">
        <ele>647</ele>
        <time>2019-05-24T06:52:03Z</time>
      </trkpt>
      <trkpt lat="46.09301" lon="6.64645">
        <ele>647</ele>
        <time>2019-05-24T06:52:13Z</time>
      </trkpt>
      <trkpt lat="46.09307" lon="6.64613">
        <ele>648</ele>
        <time>2019-05-24T06:52:17Z</time>
      </trkpt>
      <trkpt lat="46.09309" lon="6.64579">
        <ele>648</ele>
        <time>2019-05-24T06:52:21Z</time>
      </trkpt>
      <trkpt lat="46.09324" lon="6.64057">
        <ele>644</ele>
        <time>2019-05-24T06:53:26Z</time>
      </trkpt>
      <trkpt lat="46.09319" lon="6.63925">
        <ele>649</ele>
        <time>2019-05-24T06:53:42Z</time>
      </trkpt>
      <trkpt lat="46.0932" lon="6.63893">
        <ele>649</ele>
        <time>2019-05-24T06:53:46Z</time>
      </trkpt>
      <trkpt lat="46.09323" lon="6.63867">
        <ele>648</ele>
        <time>2019-05-24T06:53:49Z</time>
      </trkpt>
      <trkpt lat="46.09331" lon="6.6383">
        <ele>647</ele>
        <time>2019-05-24T06:53:54Z</time>
      </trkpt>
      <trkpt lat="46.09369" lon="6.63696">
        <ele>653</ele>
        <time>2019-05-24T06:54:12Z</time>
      </trkpt>
      <trkpt lat="46.09383" lon="6.63631">
        <ele>653</ele>
        <time>2019-05-24T06:54:20Z</time>
      </trkpt>
      <trkpt lat="46.09408" lon="6.63446">
        <ele>648</ele>
        <time>2019-05-24T06:54:43Z</time>
      </trkpt>
      <trkpt lat="46.09429" lon="6.63372">
        <ele>646</ele>
        <time>2019-05-24T06:54:53Z</time>
      </trkpt>
      <trkpt lat="46.09482" lon="6.63242">
        <ele>644</ele>
        <time>2019-05-24T06:55:12Z</time>
      </trkpt>
      <trkpt lat="46.09506" lon="6.63165">
        <ele>641</ele>
        <time>2019-05-24T06:55:22Z</time>
      </trkpt>
      <trkpt lat="46.09514" lon="6.63128">
        <ele>640</ele>
        <time>2019-05-24T06:55:27Z</time>
      </trkpt>
      <trkpt lat="46.09519" lon="6.63091">
        <ele>639</ele>
        <time>2019-05-24T06:55:32Z</time>
      </trkpt>
      <trkpt lat="46.0953" lon="6.62996">
        <ele>640</ele>
        <time>2019-05-24T06:55:44Z</time>
      </trkpt>
      <trkpt lat="46.09565" lon="6.62704">
        <ele>641</ele>
        <time>2019-05-24T06:56:20Z</time>
      </trkpt>
      <trkpt lat="46.09566" lon="6.62633">
        <ele>639</ele>
        <time>2019-05-24T06:56:29Z</time>
      </trkpt>
      <trkpt lat="46.09562" lon="6.6219">
        <ele>645</ele>
        <time>2019-05-24T06:57:24Z</time>
      </trkpt>
      <trkpt lat="46.09569" lon="6.62105">
        <ele>643</ele>
        <time>2019-05-24T06:57:34Z</time>
      </trkpt>
      <trkpt lat="46.09588" lon="6.61973">
        <ele>643</ele>
        <time>2019-05-24T06:57:51Z</time>
      </trkpt>
      <trkpt lat="46.09593" lon="6.61927">
        <ele>643</ele>
        <time>2019-05-24T06:57:57Z</time>
      </trkpt>
      <trkpt lat="46.09598" lon="6.61847">
        <ele>645</ele>
        <time>2019-05-24T06:58:06Z</time>
      </trkpt>
      <trkpt lat="46.09577" lon="6.61764">
        <ele>651</ele>
        <time>2019-05-24T06:58:17Z</time>
      </trkpt>
      <trkpt lat="46.09577" lon="6.61706">
        <ele>657</ele>
        <time>2019-05-24T06:58:25Z</time>
      </trkpt>
      <trkpt lat="46.09629" lon="6.61556">
        <ele>653</ele>
        <time>2019-05-24T06:58:45Z</time>
      </trkpt>
      <trkpt lat="46.0967" lon="6.61383">
        <ele>654</ele>
        <time>2019-05-24T06:59:08Z</time>
      </trkpt>
      <trkpt lat="46.09678" lon="6.61308">
        <ele>656</ele>
        <time>2019-05-24T06:59:17Z</time>
      </trkpt>
      <trkpt lat="46.09665" lon="6.61213">
        <ele>658</ele>
        <time>2019-05-24T06:59:29Z</time>
      </trkpt>
      <trkpt lat="46.09592" lon="6.6107">
        <ele>666</ele>
        <time>2019-05-24T06:59:51Z</time>
      </trkpt>
      <trkpt lat="46.0957" lon="6.61006">
        <ele>667</ele>
        <time>2019-05-24T07:00:00Z</time>
      </trkpt>
      <trkpt lat="46.09563" lon="6.60963">
        <ele>667</ele>
        <time>2019-05-24T07:00:05Z</time>
      </trkpt>
      <trkpt lat="46.09556" lon="6.60833">
        <ele>669</ele>
        <time>2019-05-24T07:00:21Z</time>
      </trkpt>
      <trkpt lat="46.09557" lon="6.60782">
        <ele>670</ele>
        <time>2019-05-24T07:00:28Z</time>
      </trkpt>
      <trkpt lat="46.09601" lon="6.60691">
        <ele>664</ele>
        <time>2019-05-24T07:00:41Z</time>
      </trkpt>
      <trkpt lat="46.09612" lon="6.60649">
        <ele>663</ele>
        <time>2019-05-24T07:00:47Z</time>
      </trkpt>
      <trkpt lat="46.0962" lon="6.60595">
        <ele>662</ele>
        <time>2019-05-24T07:00:54Z</time>
      </trkpt>
      <trkpt lat="46.09618" lon="6.60559">
        <ele>663</ele>
        <time>2019-05-24T07:00:58Z</time>
      </trkpt>
      <trkpt lat="46.09603" lon="6.60505">
        <ele>667</ele>
        <time>2019-05-24T07:01:05Z</time>
      </trkpt>
      <trkpt lat="46.09604" lon="6.60467">
        <ele>668</ele>
        <time>2019-05-24T07:01:10Z</time>
      </trkpt>
      <trkpt lat="46.09622" lon="6.60368">
        <ele>668</ele>
        <time>2019-05-24T07:01:23Z</time>
      </trkpt>
      <trkpt lat="46.09616" lon="6.6025">
        <ele>668</ele>
        <time>2019-05-24T07:01:37Z</time>
      </trkpt>
      <trkpt lat="46.09627" lon="6.6008">
        <ele>671</ele>
        <time>2019-05-24T07:01:58Z</time>
      </trkpt>
      <trkpt lat="46.09625" lon="6.60029">
        <ele>671</ele>
        <time>2019-05-24T07:02:05Z</time>
      </trkpt>
      <trkpt lat="46.09613" lon="6.59912">
        <ele>675</ele>
        <time>2019-05-24T07:02:19Z</time>
      </trkpt>
      <trkpt lat="46.09613" lon="6.59897">
        <ele>674</ele>
        <time>2019-05-24T07:02:21Z</time>
      </trkpt>
      <trkpt lat="46.09601" lon="6.59898">
        <ele>678</ele>
        <time>2019-05-24T07:02:23Z</time>
      </trkpt>
      <trkpt lat="46.09595" lon="6.59893">
        <ele>680</ele>
        <time>2019-05-24T07:02:24Z</time>
      </trkpt>
      <trkpt lat="46.09588" lon="6.59882">
        <ele>682</ele>
        <time>2019-05-24T07:02:26Z</time>
      </trkpt>
      <trkpt lat="46.09585" lon="6.59863">
        <ele>681</ele>
        <time>2019-05-24T07:02:29Z</time>
      </trkpt>
      <trkpt lat="46.09587" lon="6.59782">
        <ele>675</ele>
        <time>2019-05-24T07:02:39Z</time>
      </trkpt>
      <trkpt lat="46.09587" lon="6.5973">
        <ele>673</ele>
        <time>2019-05-24T07:02:45Z</time>
      </trkpt>
      <trkpt lat="46.09582" lon="6.59695">
        <ele>675</ele>
        <time>2019-05-24T07:02:49Z</time>
      </trkpt>
      <trkpt lat="46.09553" lon="6.59591">
        <ele>686</ele>
        <time>2019-05-24T07:03:03Z</time>
      </trkpt>
      <trkpt lat="46.09509" lon="6.59378">
        <ele>691</ele>
        <time>2019-05-24T07:03:31Z</time>
      </trkpt>
      <trkpt lat="46.09484" lon="6.59291">
        <ele>691</ele>
        <time>2019-05-24T07:03:42Z</time>
      </trkpt>
      <trkpt lat="46.09459" lon="6.59225">
        <ele>694</ele>
        <time>2019-05-24T07:03:52Z</time>
      </trkpt>
      <trkpt lat="46.09425" lon="6.59149">
        <ele>698</ele>
        <time>2019-05-24T07:04:03Z</time>
      </trkpt>
      <trkpt lat="46.0939" lon="6.59087">
        <ele>699</ele>
        <time>2019-05-24T07:04:13Z</time>
      </trkpt>
      <trkpt lat="46.09317" lon="6.5902">
        <ele>709</ele>
        <time>2019-05-24T07:04:28Z</time>
      </trkpt>
      <trkpt lat="46.09285" lon="6.58986">
        <ele>714</ele>
        <time>2019-05-24T07:04:35Z</time>
      </trkpt>
      <trkpt lat="46.09261" lon="6.58937">
        <ele>720</ele>
        <time>2019-05-24T07:04:43Z</time>
      </trkpt>
      <trkpt lat="46.09245" lon="6.5889">
        <ele>726</ele>
        <time>2019-05-24T07:04:49Z</time>
      </trkpt>
      <trkpt lat="46.09239" lon="6.58835">
        <ele>729</ele>
        <time>2019-05-24T07:04:56Z</time>
      </trkpt>
      <trkpt lat="46.09238" lon="6.58782">
        <ele>733</ele>
        <time>2019-05-24T07:05:02Z</time>
      </trkpt>
      <trkpt lat="46.09255" lon="6.58668">
        <ele>734</ele>
        <time>2019-05-24T07:05:17Z</time>
      </trkpt>
      <trkpt lat="46.0925" lon="6.58605">
        <ele>734</ele>
        <time>2019-05-24T07:05:25Z</time>
      </trkpt>
      <trkpt lat="46.09244" lon="6.58582">
        <ele>734</ele>
        <time>2019-05-24T07:05:28Z</time>
      </trkpt>
      <trkpt lat="46.0923" lon="6.58551">
        <ele>734</ele>
        <time>2019-05-24T07:05:32Z</time>
      </trkpt>
      <trkpt lat="46.09218" lon="6.58537">
        <ele>735</ele>
        <time>2019-05-24T07:05:35Z</time>
      </trkpt>
      <trkpt lat="46.09197" lon="6.58523">
        <ele>737</ele>
        <time>2019-05-24T07:05:39Z</time>
      </trkpt>
      <trkpt lat="46.09174" lon="6.58515">
        <ele>739</ele>
        <time>2019-05-24T07:05:43Z</time>
      </trkpt>
      <trkpt lat="46.09126" lon="6.58515">
        <ele>738</ele>
        <time>2019-05-24T07:05:52Z</time>
      </trkpt>
      <trkpt lat="46.09094" lon="6.58511">
        <ele>736</ele>
        <time>2019-05-24T07:05:58Z</time>
      </trkpt>
      <trkpt lat="46.08964" lon="6.58428">
        <ele>736</ele>
        <time>2019-05-24T07:06:23Z</time>
      </trkpt>
      <trkpt lat="46.08883" lon="6.58372">
        <ele>742</ele>
        <time>2019-05-24T07:06:39Z</time>
      </trkpt>
      <trkpt lat="46.08863" lon="6.58353">
        <ele>742</ele>
        <time>2019-05-24T07:06:43Z</time>
      </trkpt>
      <trkpt lat="46.08859" lon="6.5834">
        <ele>741</ele>
        <time>2019-05-24T07:06:45Z</time>
      </trkpt>
      <trkpt lat="46.08851" lon="6.58336">
        <ele>741</ele>
        <time>2019-05-24T07:06:46Z</time>
      </trkpt>
      <trkpt lat="46.08845" lon="6.58339">
        <ele>741</ele>
        <time>2019-05-24T07:06:47Z</time>
      </trkpt>
      <trkpt lat="46.08841" lon="6.58345">
        <ele>742</ele>
        <time>2019-05-24T07:06:48Z</time>
      </trkpt>
      <trkpt lat="46.08841" lon="6.58355">
        <ele>743</ele>
        <time>2019-05-24T07:06:50Z</time>
      </trkpt>
      <trkpt lat="46.08843" lon="6.58377">
        <ele>745</ele>
        <time>2019-05-24T07:06:52Z</time>
      </trkpt>
      <trkpt lat="46.08842" lon="6.5838">
        <ele>745</ele>
        <time>2019-05-24T07:06:53Z</time>
      </trkpt>
      <trkpt lat="46.08835" lon="6.58387">
        <ele>747</ele>
        <time>2019-05-24T07:06:54Z</time>
      </trkpt>
      <trkpt lat="46.08815" lon="6.58384">
        <ele>750</ele>
        <time>2019-05-24T07:06:58Z</time>
      </trkpt>
      <trkpt lat="46.08803" lon="6.58377">
        <ele>750</ele>
        <time>2019-05-24T07:07:00Z</time>
      </trkpt>
      <trkpt lat="46.08788" lon="6.58372">
        <ele>752</ele>
        <time>2019-05-24T07:07:03Z</time>
      </trkpt>
      <trkpt lat="46.08777" lon="6.58375">
        <ele>754</ele>
        <time>2019-05-24T07:07:05Z</time>
      </trkpt>
      <trkpt lat="46.08764" lon="6.58373">
        <ele>755</ele>
        <time>2019-05-24T07:07:07Z</time>
      </trkpt>
      <trkpt lat="46.0873" lon="6.58353">
        <ele>753</ele>
        <time>2019-05-24T07:07:14Z</time>
      </trkpt>
      <trkpt lat="46.08702" lon="6.58343">
        <ele>753</ele>
        <time>2019-05-24T07:07:19Z</time>
      </trkpt>
      <trkpt lat="46.08654" lon="6.58337">
        <ele>754</ele>
        <time>2019-05-24T07:07:28Z</time>
      </trkpt>
      <trkpt lat="46.08639" lon="6.58336">
        <ele>751</ele>
        <time>2019-05-24T07:07:30Z</time>
      </trkpt>
      <trkpt lat="46.08622" lon="6.58342">
        <ele>751</ele>
        <time>2019-05-24T07:07:33Z</time>
      </trkpt>
      <trkpt lat="46.08608" lon="6.58349">
        <ele>751</ele>
        <time>2019-05-24T07:07:36Z</time>
      </trkpt>
      <trkpt lat="46.08593" lon="6.58362">
        <ele>751</ele>
        <time>2019-05-24T07:07:39Z</time>
      </trkpt>
      <trkpt lat="46.08583" lon="6.58378">
        <ele>753</ele>
        <time>2019-05-24T07:07:42Z</time>
      </trkpt>
      <trkpt lat="46.08572" lon="6.5842">
        <ele>760</ele>
        <time>2019-05-24T07:07:47Z</time>
      </trkpt>
      <trkpt lat="46.08564" lon="6.58434">
        <ele>761</ele>
        <time>2019-05-24T07:07:50Z</time>
      </trkpt>
      <trkpt lat="46.08542" lon="6.5846">
        <ele>761</ele>
        <time>2019-05-24T07:07:55Z</time>
      </trkpt>
      <trkpt lat="46.08533" lon="6.5848">
        <ele>761</ele>
        <time>2019-05-24T07:07:58Z</time>
      </trkpt>
      <trkpt lat="46.08528" lon="6.58509">
        <ele>763</ele>
        <time>2019-05-24T07:08:01Z</time>
      </trkpt>
      <trkpt lat="46.08525" lon="6.58543">
        <ele>769</ele>
        <time>2019-05-24T07:08:05Z</time>
      </trkpt>
      <trkpt lat="46.08513" lon="6.58635">
        <ele>775</ele>
        <time>2019-05-24T07:08:17Z</time>
      </trkpt>
      <trkpt lat="46.08514" lon="6.58665">
        <ele>778</ele>
        <time>2019-05-24T07:08:21Z</time>
      </trkpt>
      <trkpt lat="46.08518" lon="6.58694">
        <ele>780</ele>
        <time>2019-05-24T07:08:24Z</time>
      </trkpt>
      <trkpt lat="46.08518" lon="6.58722">
        <ele>781</ele>
        <time>2019-05-24T07:08:28Z</time>
      </trkpt>
      <trkpt lat="46.08516" lon="6.5875">
        <ele>780</ele>
        <time>2019-05-24T07:08:31Z</time>
      </trkpt>
      <trkpt lat="46.08504" lon="6.58791">
        <ele>774</ele>
        <time>2019-05-24T07:08:37Z</time>
      </trkpt>
      <trkpt lat="46.08502" lon="6.58815">
        <ele>773</ele>
        <time>2019-05-24T07:08:40Z</time>
      </trkpt>
      <trkpt lat="46.08506" lon="6.5885">
        <ele>777</ele>
        <time>2019-05-24T07:08:44Z</time>
      </trkpt>
      <trkpt lat="46.08506" lon="6.58878">
        <ele>780</ele>
        <time>2019-05-24T07:08:48Z</time>
      </trkpt>
      <trkpt lat="46.08488" lon="6.58987">
        <ele>791</ele>
        <time>2019-05-24T07:09:01Z</time>
      </trkpt>
      <trkpt lat="46.08479" lon="6.59016">
        <ele>794</ele>
        <time>2019-05-24T07:09:05Z</time>
      </trkpt>
      <trkpt lat="46.08471" lon="6.59029">
        <ele>795</ele>
        <time>2019-05-24T07:09:07Z</time>
      </trkpt>
      <trkpt lat="46.08453" lon="6.59033">
        <ele>794</ele>
        <time>2019-05-24T07:09:11Z</time>
      </trkpt>
      <trkpt lat="46.08417" lon="6.59018">
        <ele>788</ele>
        <time>2019-05-24T07:09:17Z</time>
      </trkpt>
      <trkpt lat="46.084" lon="6.5902">
        <ele>787</ele>
        <time>2019-05-24T07:09:20Z</time>
      </trkpt>
      <trkpt lat="46.08406" lon="6.59028">
        <ele>789</ele>
        <time>2019-05-24T07:09:22Z</time>
      </trkpt>
      <trkpt lat="46.0842" lon="6.59031">
        <ele>791</ele>
        <time>2019-05-24T07:09:24Z</time>
      </trkpt>
      <trkpt lat="46.08448" lon="6.59045">
        <ele>796</ele>
        <time>2019-05-24T07:09:30Z</time>
      </trkpt>
      <trkpt lat="46.08487" lon="6.59062">
        <ele>801</ele>
        <time>2019-05-24T07:09:37Z</time>
      </trkpt>
      <trkpt lat="46.08513" lon="6.5905">
        <ele>803</ele>
        <time>2019-05-24T07:09:42Z</time>
      </trkpt>
      <trkpt lat="46.08543" lon="6.59014">
        <ele>806</ele>
        <time>2019-05-24T07:09:49Z</time>
      </trkpt>
      <trkpt lat="46.08568" lon="6.58938">
        <ele>808</ele>
        <time>2019-05-24T07:09:59Z</time>
      </trkpt>
      <trkpt lat="46.08587" lon="6.58866">
        <ele>812</ele>
        <time>2019-05-24T07:10:09Z</time>
      </trkpt>
      <trkpt lat="46.08594" lon="6.58854">
        <ele>815</ele>
        <time>2019-05-24T07:10:11Z</time>
      </trkpt>
      <trkpt lat="46.08599" lon="6.58852">
        <ele>817</ele>
        <time>2019-05-24T07:10:11Z</time>
      </trkpt>
      <trkpt lat="46.08603" lon="6.58861">
        <ele>818</ele>
        <time>2019-05-24T07:10:13Z</time>
      </trkpt>
      <trkpt lat="46.08604" lon="6.58873">
        <ele>819</ele>
        <time>2019-05-24T07:10:14Z</time>
      </trkpt>
      <trkpt lat="46.08594" lon="6.58918">
        <ele>816</ele>
        <time>2019-05-24T07:10:20Z</time>
      </trkpt>
      <trkpt lat="46.08607" lon="6.59068">
        <ele>824</ele>
        <time>2019-05-24T07:10:39Z</time>
      </trkpt>
      <trkpt lat="46.08618" lon="6.59116">
        <ele>828</ele>
        <time>2019-05-24T07:10:45Z</time>
      </trkpt>
      <trkpt lat="46.08625" lon="6.59142">
        <ele>831</ele>
        <time>2019-05-24T07:10:48Z</time>
      </trkpt>
      <trkpt lat="46.08635" lon="6.59165">
        <ele>834</ele>
        <time>2019-05-24T07:10:52Z</time>
      </trkpt>
      <trkpt lat="46.08739" lon="6.59336">
        <ele>849</ele>
        <time>2019-05-24T07:11:20Z</time>
      </trkpt>
      <trkpt lat="46.08744" lon="6.59354">
        <ele>850</ele>
        <time>2019-05-24T07:11:22Z</time>
      </trkpt>
      <trkpt lat="46.08742" lon="6.59375">
        <ele>851</ele>
        <time>2019-05-24T07:11:25Z</time>
      </trkpt>
      <trkpt lat="46.08736" lon="6.59408">
        <ele>852</ele>
        <time>2019-05-24T07:11:29Z</time>
      </trkpt>
      <trkpt lat="46.08737" lon="6.59424">
        <ele>852</ele>
        <time>2019-05-24T07:11:31Z</time>
      </trkpt>
      <trkpt lat="46.08742" lon="6.59435">
        <ele>853</ele>
        <time>2019-05-24T07:11:33Z</time>
      </trkpt>
      <trkpt lat="46.08756" lon="6.59441">
        <ele>854</ele>
        <time>2019-05-24T07:11:35Z</time>
      </trkpt>
      <trkpt lat="46.08767" lon="6.59439">
        <ele>855</ele>
        <time>2019-05-24T07:11:37Z</time>
      </trkpt>
      <trkpt lat="46.08793" lon="6.59403">
        <ele>855</ele>
        <time>2019-05-24T07:11:44Z</time>
      </trkpt>
      <trkpt lat="46.08812" lon="6.59394">
        <ele>857</ele>
        <time>2019-05-24T07:11:47Z</time>
      </trkpt>
      <trkpt lat="46.08825" lon="6.59397">
        <ele>858</ele>
        <time>2019-05-24T07:11:50Z</time>
      </trkpt>
      <trkpt lat="46.08844" lon="6.59452">
        <ele>859</ele>
        <time>2019-05-24T07:11:57Z</time>
      </trkpt>
      <trkpt lat="46.08847" lon="6.59472">
        <ele>860</ele>
        <time>2019-05-24T07:12:00Z</time>
      </trkpt>
      <trkpt lat="46.08844" lon="6.59511">
        <ele>863</ele>
        <time>2019-05-24T07:12:05Z</time>
      </trkpt>
      <trkpt lat="46.08797" lon="6.59624">
        <ele>872</ele>
        <time>2019-05-24T07:12:21Z</time>
      </trkpt>
      <trkpt lat="46.08755" lon="6.59714">
        <ele>888</ele>
        <time>2019-05-24T07:12:34Z</time>
      </trkpt>
      <trkpt lat="46.0874" lon="6.59727">
        <ele>892</ele>
        <time>2019-05-24T07:12:37Z</time>
      </trkpt>
      <trkpt lat="46.08697" lon="6.59718">
        <ele>892</ele>
        <time>2019-05-24T07:12:45Z</time>
      </trkpt>
      <trkpt lat="46.08686" lon="6.59722">
        <ele>894</ele>
        <time>2019-05-24T07:12:47Z</time>
      </trkpt>
      <trkpt lat="46.0868" lon="6.59742">
        <ele>897</ele>
        <time>2019-05-24T07:12:50Z</time>
      </trkpt>
      <trkpt lat="46.08674" lon="6.59768">
        <ele>900</ele>
        <time>2019-05-24T07:12:53Z</time>
      </trkpt>
      <trkpt lat="46.08662" lon="6.59783">
        <ele>903</ele>
        <time>2019-05-24T07:12:56Z</time>
      </trkpt>
      <trkpt lat="46.08642" lon="6.59801">
        <ele>911</ele>
        <time>2019-05-24T07:13:00Z</time>
      </trkpt>
      <trkpt lat="46.08638" lon="6.59823">
        <ele>914</ele>
        <time>2019-05-24T07:13:03Z</time>
      </trkpt>
      <trkpt lat="46.08643" lon="6.59844">
        <ele>914</ele>
        <time>2019-05-24T07:13:06Z</time>
      </trkpt>
      <trkpt lat="46.08675" lon="6.59863">
        <ele>909</ele>
        <time>2019-05-24T07:13:12Z</time>
      </trkpt>
      <trkpt lat="46.08682" lon="6.59876">
        <ele>910</ele>
        <time>2019-05-24T07:13:14Z</time>
      </trkpt>
      <trkpt lat="46.08685" lon="6.59897">
        <ele>912</ele>
        <time>2019-05-24T07:13:17Z</time>
      </trkpt>
      <trkpt lat="46.0868" lon="6.59916">
        <ele>913</ele>
        <time>2019-05-24T07:13:19Z</time>
      </trkpt>
      <trkpt lat="46.08674" lon="6.59925">
        <ele>914</ele>
        <time>2019-05-24T07:13:21Z</time>
      </trkpt>
      <trkpt lat="46.08663" lon="6.59929">
        <ele>915</ele>
        <time>2019-05-24T07:13:23Z</time>
      </trkpt>
      <trkpt lat="46.08648" lon="6.59924">
        <ele>919</ele>
        <time>2019-05-24T07:13:25Z</time>
      </trkpt>
      <trkpt lat="46.08636" lon="6.59909">
        <ele>921</ele>
        <time>2019-05-24T07:13:28Z</time>
      </trkpt>
      <trkpt lat="46.08627" lon="6.59864">
        <ele>921</ele>
        <time>2019-05-24T07:13:34Z</time>
      </trkpt>
      <trkpt lat="46.0862" lon="6.59857">
        <ele>922</ele>
        <time>2019-05-24T07:13:35Z</time>
      </trkpt>
      <trkpt lat="46.08609" lon="6.59855">
        <ele>926</ele>
        <time>2019-05-24T07:13:37Z</time>
      </trkpt>
      <trkpt lat="46.08601" lon="6.59863">
        <ele>929</ele>
        <time>2019-05-24T07:13:39Z</time>
      </trkpt>
      <trkpt lat="46.08599" lon="6.59882">
        <ele>930</ele>
        <time>2019-05-24T07:13:42Z</time>
      </trkpt>
      <trkpt lat="46.08609" lon="6.599">
        <ele>928</ele>
        <time>2019-05-24T07:13:44Z</time>
      </trkpt>
      <trkpt lat="46.08615" lon="6.59923">
        <ele>927</ele>
        <time>2019-05-24T07:13:47Z</time>
      </trkpt>
      <trkpt lat="46.08617" lon="6.59986">
        <ele>926</ele>
        <time>2019-05-24T07:13:55Z</time>
      </trkpt>
      <trkpt lat="46.08656" lon="6.60107">
        <ele>930</ele>
        <time>2019-05-24T07:14:12Z</time>
      </trkpt>
      <trkpt lat="46.08662" lon="6.60147">
        <ele>930</ele>
        <time>2019-05-24T07:14:17Z</time>
      </trkpt>
      <trkpt lat="46.08662" lon="6.60207">
        <ele>932</ele>
        <time>2019-05-24T07:14:24Z</time>
      </trkpt>
      <trkpt lat="46.08647" lon="6.60242">
        <ele>935</ele>
        <time>2019-05-24T07:14:29Z</time>
      </trkpt>
      <trkpt lat="46.08616" lon="6.60285">
        <ele>941</ele>
        <time>2019-05-24T07:14:37Z</time>
      </trkpt>
      <trkpt lat="46.08607" lon="6.60322">
        <ele>943</ele>
        <time>2019-05-24T07:14:42Z</time>
      </trkpt>
      <trkpt lat="46.08606" lon="6.60366">
        <ele>944</ele>
        <time>2019-05-24T07:14:47Z</time>
      </trkpt>
      <trkpt lat="46.08607" lon="6.60432">
        <ele>946</ele>
        <time>2019-05-24T07:14:55Z</time>
      </trkpt>
      <trkpt lat="46.08593" lon="6.60505">
        <ele>957</ele>
        <time>2019-05-24T07:15:05Z</time>
      </trkpt>
      <trkpt lat="46.08595" lon="6.60583">
        <ele>964</ele>
        <time>2019-05-24T07:15:14Z</time>
      </trkpt>
      <trkpt lat="46.08587" lon="6.60732">
        <ele>975</ele>
        <time>2019-05-24T07:15:33Z</time>
      </trkpt>
      <trkpt lat="46.08594" lon="6.60804">
        <ele>980</ele>
        <time>2019-05-24T07:15:42Z</time>
      </trkpt>
      <trkpt lat="46.0861" lon="6.60902">
        <ele>986</ele>
        <time>2019-05-24T07:15:54Z</time>
      </trkpt>
      <trkpt lat="46.0866" lon="6.6115">
        <ele>979</ele>
        <time>2019-05-24T07:16:26Z</time>
      </trkpt>
      <trkpt lat="46.08658" lon="6.61227">
        <ele>982</ele>
        <time>2019-05-24T07:16:35Z</time>
      </trkpt>
      <trkpt lat="46.08653" lon="6.61332">
        <ele>980</ele>
        <time>2019-05-24T07:16:48Z</time>
      </trkpt>
      <trkpt lat="46.08647" lon="6.61351">
        <ele>982</ele>
        <time>2019-05-24T07:16:51Z</time>
      </trkpt>
      <trkpt lat="46.08653" lon="6.61332">
        <ele>980</ele>
        <time>2019-05-24T07:16:54Z</time>
      </trkpt>
      <trkpt lat="46.08648" lon="6.61281">
        <ele>984</ele>
        <time>2019-05-24T07:17:00Z</time>
      </trkpt>
      <trkpt lat="46.08643" lon="6.61254">
        <ele>987</ele>
        <time>2019-05-24T07:17:03Z</time>
      </trkpt>
      <trkpt lat="46.08616" lon="6.61217">
        <ele>993</ele>
        <time>2019-05-24T07:17:10Z</time>
      </trkpt>
      <trkpt lat="46.08571" lon="6.61089">
        <ele>1008</ele>
        <time>2019-05-24T07:17:28Z</time>
      </trkpt>
      <trkpt lat="46.08562" lon="6.6104">
        <ele>1011</ele>
        <time>2019-05-24T07:17:34Z</time>
      </trkpt>
      <trkpt lat="46.08544" lon="6.61005">
        <ele>1014</ele>
        <time>2019-05-24T07:17:39Z</time>
      </trkpt>
      <trkpt lat="46.08493" lon="6.60839">
        <ele>1013</ele>
        <time>2019-05-24T07:18:02Z</time>
      </trkpt>
      <trkpt lat="46.0847" lon="6.60771">
        <ele>1013</ele>
        <time>2019-05-24T07:18:11Z</time>
      </trkpt>
      <trkpt lat="46.08444" lon="6.60661">
        <ele>1009</ele>
        <time>2019-05-24T07:18:25Z</time>
      </trkpt>
      <trkpt lat="46.08395" lon="6.60543">
        <ele>1014</ele>
        <time>2019-05-24T07:18:42Z</time>
      </trkpt>
      <trkpt lat="46.08383" lon="6.60497">
        <ele>1017</ele>
        <time>2019-05-24T07:18:48Z</time>
      </trkpt>
      <trkpt lat="46.08356" lon="6.60375">
        <ele>1015</ele>
        <time>2019-05-24T07:19:04Z</time>
      </trkpt>
      <trkpt lat="46.08345" lon="6.60288">
        <ele>1011</ele>
        <time>2019-05-24T07:19:15Z</time>
      </trkpt>
      <trkpt lat="46.08327" lon="6.60218">
        <ele>1012</ele>
        <time>2019-05-24T07:19:24Z</time>
      </trkpt>
      <trkpt lat="46.08306" lon="6.60164">
        <ele>1014</ele>
        <time>2019-05-24T07:19:32Z</time>
      </trkpt>
      <trkpt lat="46.083" lon="6.60139">
        <ele>1015</ele>
        <time>2019-05-24T07:19:35Z</time>
      </trkpt>
      <trkpt lat="46.08285" lon="6.60099">
        <ele>1017</ele>
        <time>2019-05-24T07:19:41Z</time>
      </trkpt>
      <trkpt lat="46.08261" lon="6.60088">
        <ele>1020</ele>
        <time>2019-05-24T07:19:45Z</time>
      </trkpt>
      <trkpt lat="46.08205" lon="6.60095">
        <ele>1026</ele>
        <time>2019-05-24T07:19:55Z</time>
      </trkpt>
      <trkpt lat="46.0816" lon="6.60066">
        <ele>1026</ele>
        <time>2019-05-24T07:20:04Z</time>
      </trkpt>
      <trkpt lat="46.08101" lon="6.60066">
        <ele>1022</ele>
        <time>2019-05-24T07:20:15Z</time>
      </trkpt>
      <trkpt lat="46.08027" lon="6.60132">
        <ele>1023</ele>
        <time>2019-05-24T07:20:30Z</time>
      </trkpt>
      <trkpt lat="46.07905" lon="6.60284">
        <ele>1020</ele>
        <time>2019-05-24T07:20:59Z</time>
      </trkpt>
      <trkpt lat="46.07873" lon="6.60418">
        <ele>1027</ele>
        <time>2019-05-24T07:21:16Z</time>
      </trkpt>
      <trkpt lat="46.07826" lon="6.60521">
        <ele>1028</ele>
        <time>2019-05-24T07:21:32Z</time>
      </trkpt>
      <trkpt lat="46.07763" lon="6.60691">
        <ele>1031</ele>
        <time>2019-05-24T07:21:55Z</time>
      </trkpt>
      <trkpt lat="46.07735" lon="6.60773">
        <ele>1029</ele>
        <time>2019-05-24T07:22:07Z</time>
      </trkpt>
      <trkpt lat="46.07707" lon="6.60809">
        <ele>1023</ele>
        <time>2019-05-24T07:22:13Z</time>
      </trkpt>
      <trkpt lat="46.07684" lon="6.60849">
        <ele>1019</ele>
        <time>2019-05-24T07:22:20Z</time>
      </trkpt>
      <trkpt lat="46.0766" lon="6.60921">
        <ele>1016</ele>
        <time>2019-05-24T07:22:30Z</time>
      </trkpt>
      <trkpt lat="46.07639" lon="6.60963">
        <ele>1013</ele>
        <time>2019-05-24T07:22:36Z</time>
      </trkpt>
      <trkpt lat="46.07628" lon="6.60951">
        <ele>1008</ele>
        <time>2019-05-24T07:22:38Z</time>
      </trkpt>
      <trkpt lat="46.07617" lon="6.60958">
        <ele>1006</ele>
        <time>2019-05-24T07:22:41Z</time>
      </trkpt>
      <trkpt lat="46.07613" lon="6.60998">
        <ele>1007</ele>
        <time>2019-05-24T07:22:46Z</time>
      </trkpt>
      <trkpt lat="46.07605" lon="6.61044">
        <ele>1008</ele>
        <time>2019-05-24T07:22:51Z</time>
      </trkpt>
      <trkpt lat="46.07586" lon="6.61081">
        <ele>1004</ele>
        <time>2019-05-24T07:22:57Z</time>
      </trkpt>
      <trkpt lat="46.07524" lon="6.61147">
        <ele>994</ele>
        <time>2019-05-24T07:23:11Z</time>
      </trkpt>
      <trkpt lat="46.07497" lon="6.61203">
        <ele>995</ele>
        <time>2019-05-24T07:23:19Z</time>
      </trkpt>
      <trkpt lat="46.07455" lon="6.61239">
        <ele>987</ele>
        <time>2019-05-24T07:23:28Z</time>
      </trkpt>
      <trkpt lat="46.07341" lon="6.61403">
        <ele>978</ele>
        <time>2019-05-24T07:23:57Z</time>
      </trkpt>
      <trkpt lat="46.07313" lon="6.61429">
        <ele>977</ele>
        <time>2019-05-24T07:24:03Z</time>
      </trkpt>
      <trkpt lat="46.07294" lon="6.61437">
        <ele>976</ele>
        <time>2019-05-24T07:24:06Z</time>
      </trkpt>
      <trkpt lat="46.07263" lon="6.61461">
        <ele>972</ele>
        <time>2019-05-24T07:24:12Z</time>
      </trkpt>
      <trkpt lat="46.07248" lon="6.61445">
        <ele>969</ele>
        <time>2019-05-24T07:24:16Z</time>
      </trkpt>
      <trkpt lat="46.07237" lon="6.61471">
        <ele>967</ele>
        <time>2019-05-24T07:24:19Z</time>
      </trkpt>
      <trkpt lat="46.07229" lon="6.6152">
        <ele>966</ele>
        <time>2019-05-24T07:24:26Z</time>
      </trkpt>
      <trkpt lat="46.07213" lon="6.61548">
        <ele>964</ele>
        <time>2019-05-24T07:24:30Z</time>
      </trkpt>
      <trkpt lat="46.07198" lon="6.61597">
        <ele>964</ele>
        <time>2019-05-24T07:24:37Z</time>
      </trkpt>
      <trkpt lat="46.07192" lon="6.61606">
        <ele>963</ele>
        <time>2019-05-24T07:24:38Z</time>
      </trkpt>
      <trkpt lat="46.07179" lon="6.61611">
        <ele>960</ele>
        <time>2019-05-24T07:24:41Z</time>
      </trkpt>
      <trkpt lat="46.07175" lon="6.6161">
        <ele>959</ele>
        <time>2019-05-24T07:24:41Z</time>
      </trkpt>
      <trkpt lat="46.07181" lon="6.6158">
        <ele>957</ele>
        <time>2019-05-24T07:24:45Z</time>
      </trkpt>
      <trkpt lat="46.07183" lon="6.61549">
        <ele>956</ele>
        <time>2019-05-24T07:24:49Z</time>
      </trkpt>
      <trkpt lat="46.0718" lon="6.61515">
        <ele>954</ele>
        <time>2019-05-24T07:24:53Z</time>
      </trkpt>
      <trkpt lat="46.07174" lon="6.61483">
        <ele>952</ele>
        <time>2019-05-24T07:24:57Z</time>
      </trkpt>
      <trkpt lat="46.07162" lon="6.61448">
        <ele>950</ele>
        <time>2019-05-24T07:25:02Z</time>
      </trkpt>
      <trkpt lat="46.07136" lon="6.61406">
        <ele>943</ele>
        <time>2019-05-24T07:25:09Z</time>
      </trkpt>
      <trkpt lat="46.07124" lon="6.61383">
        <ele>937</ele>
        <time>2019-05-24T07:25:13Z</time>
      </trkpt>
      <trkpt lat="46.07119" lon="6.61359">
        <ele>934</ele>
        <time>2019-05-24T07:25:16Z</time>
      </trkpt>
      <trkpt lat="46.0712" lon="6.61347">
        <ele>933</ele>
        <time>2019-05-24T07:25:17Z</time>
      </trkpt>
      <trkpt lat="46.07123" lon="6.61334">
        <ele>933</ele>
        <time>2019-05-24T07:25:19Z</time>
      </trkpt>
      <trkpt lat="46.0713" lon="6.61323">
        <ele>933</ele>
        <time>2019-05-24T07:25:21Z</time>
      </trkpt>
      <trkpt lat="46.07167" lon="6.6129">
        <ele>936</ele>
        <time>2019-05-24T07:25:29Z</time>
      </trkpt>
      <trkpt lat="46.07201" lon="6.61254">
        <ele>934</ele>
        <time>2019-05-24T07:25:36Z</time>
      </trkpt>
      <trkpt lat="46.07216" lon="6.61234">
        <ele>934</ele>
        <time>2019-05-24T07:25:40Z</time>
      </trkpt>
      <trkpt lat="46.07211" lon="6.61215">
        <ele>930</ele>
        <time>2019-05-24T07:25:42Z</time>
      </trkpt>
      <trkpt lat="46.07225" lon="6.61178">
        <ele>928</ele>
        <time>2019-05-24T07:25:47Z</time>
      </trkpt>
      <trkpt lat="46.07224" lon="6.61147">
        <ele>925</ele>
        <time>2019-05-24T07:25:51Z</time>
      </trkpt>
      <trkpt lat="46.07214" lon="6.61031">
        <ele>913</ele>
        <time>2019-05-24T07:26:06Z</time>
      </trkpt>
      <trkpt lat="46.07222" lon="6.61011">
        <ele>913</ele>
        <time>2019-05-24T07:26:08Z</time>
      </trkpt>
      <trkpt lat="46.07248" lon="6.60991">
        <ele>915</ele>
        <time>2019-05-24T07:26:14Z</time>
      </trkpt>
      <trkpt lat="46.07253" lon="6.60974">
        <ele>914</ele>
        <time>2019-05-24T07:26:16Z</time>
      </trkpt>
      <trkpt lat="46.07252" lon="6.60961">
        <ele>912</ele>
        <time>2019-05-24T07:26:18Z</time>
      </trkpt>
      <trkpt lat="46.07243" lon="6.60949">
        <ele>910</ele>
        <time>2019-05-24T07:26:20Z</time>
      </trkpt>
      <trkpt lat="46.07198" lon="6.60956">
        <ele>904</ele>
        <time>2019-05-24T07:26:28Z</time>
      </trkpt>
      <trkpt lat="46.07163" lon="6.60975">
        <ele>901</ele>
        <time>2019-05-24T07:26:35Z</time>
      </trkpt>
      <trkpt lat="46.07145" lon="6.61016">
        <ele>899</ele>
        <time>2019-05-24T07:26:41Z</time>
      </trkpt>
      <trkpt lat="46.07128" lon="6.61064">
        <ele>897</ele>
        <time>2019-05-24T07:26:47Z</time>
      </trkpt>
      <trkpt lat="46.07113" lon="6.61087">
        <ele>894</ele>
        <time>2019-05-24T07:26:51Z</time>
      </trkpt>
      <trkpt lat="46.07096" lon="6.61129">
        <ele>891</ele>
        <time>2019-05-24T07:26:57Z</time>
      </trkpt>
      <trkpt lat="46.07077" lon="6.61213">
        <ele>895</ele>
        <time>2019-05-24T07:27:08Z</time>
      </trkpt>
      <trkpt lat="46.07065" lon="6.61221">
        <ele>893</ele>
        <time>2019-05-24T07:27:10Z</time>
      </trkpt>
      <trkpt lat="46.07055" lon="6.6121">
        <ele>889</ele>
        <time>2019-05-24T07:27:13Z</time>
      </trkpt>
      <trkpt lat="46.07053" lon="6.61178">
        <ele>884</ele>
        <time>2019-05-24T07:27:17Z</time>
      </trkpt>
      <trkpt lat="46.0704" lon="6.61114">
        <ele>878</ele>
        <time>2019-05-24T07:27:25Z</time>
      </trkpt>
      <trkpt lat="46.07027" lon="6.61074">
        <ele>875</ele>
        <time>2019-05-24T07:27:30Z</time>
      </trkpt>
      <trkpt lat="46.07022" lon="6.61037">
        <ele>873</ele>
        <time>2019-05-24T07:27:35Z</time>
      </trkpt>
      <trkpt lat="46.07024" lon="6.60998">
        <ele>872</ele>
        <time>2019-05-24T07:27:40Z</time>
      </trkpt>
      <trkpt lat="46.07028" lon="6.60967">
        <ele>868</ele>
        <time>2019-05-24T07:27:44Z</time>
      </trkpt>
      <trkpt lat="46.07029" lon="6.60933">
        <ele>864</ele>
        <time>2019-05-24T07:27:48Z</time>
      </trkpt>
      <trkpt lat="46.07049" lon="6.6087">
        <ele>860</ele>
        <time>2019-05-24T07:27:56Z</time>
      </trkpt>
      <trkpt lat="46.07068" lon="6.60834">
        <ele>861</ele>
        <time>2019-05-24T07:28:02Z</time>
      </trkpt>
      <trkpt lat="46.07078" lon="6.60796">
        <ele>860</ele>
        <time>2019-05-24T07:28:07Z</time>
      </trkpt>
      <trkpt lat="46.07078" lon="6.60773">
        <ele>858</ele>
        <time>2019-05-24T07:28:10Z</time>
      </trkpt>
      <trkpt lat="46.07073" lon="6.6075">
        <ele>855</ele>
        <time>2019-05-24T07:28:13Z</time>
      </trkpt>
      <trkpt lat="46.07075" lon="6.60731">
        <ele>854</ele>
        <time>2019-05-24T07:28:15Z</time>
      </trkpt>
      <trkpt lat="46.07116" lon="6.60672">
        <ele>857</ele>
        <time>2019-05-24T07:28:25Z</time>
      </trkpt>
      <trkpt lat="46.0711" lon="6.60628">
        <ele>850</ele>
        <time>2019-05-24T07:28:31Z</time>
      </trkpt>
      <trkpt lat="46.07135" lon="6.60545">
        <ele>843</ele>
        <time>2019-05-24T07:28:42Z</time>
      </trkpt>
      <trkpt lat="46.07146" lon="6.60493">
        <ele>837</ele>
        <time>2019-05-24T07:28:49Z</time>
      </trkpt>
      <trkpt lat="46.07157" lon="6.60461">
        <ele>836</ele>
        <time>2019-05-24T07:28:53Z</time>
      </trkpt>
      <trkpt lat="46.07182" lon="6.60438">
        <ele>838</ele>
        <time>2019-05-24T07:28:59Z</time>
      </trkpt>
      <trkpt lat="46.07192" lon="6.60404">
        <ele>835</ele>
        <time>2019-05-24T07:29:03Z</time>
      </trkpt>
      <trkpt lat="46.07202" lon="6.60345">
        <ele>827</ele>
        <time>2019-05-24T07:29:11Z</time>
      </trkpt>
      <trkpt lat="46.07245" lon="6.60285">
        <ele>826</ele>
        <time>2019-05-24T07:29:21Z</time>
      </trkpt>
      <trkpt lat="46.07243" lon="6.60265">
        <ele>823</ele>
        <time>2019-05-24T07:29:24Z</time>
      </trkpt>
      <trkpt lat="46.07227" lon="6.6026">
        <ele>819</ele>
        <time>2019-05-24T07:29:27Z</time>
      </trkpt>
      <trkpt lat="46.07187" lon="6.60304">
        <ele>818</ele>
        <time>2019-05-24T07:29:36Z</time>
      </trkpt>
      <trkpt lat="46.07159" lon="6.60328">
        <ele>816</ele>
        <time>2019-05-24T07:29:41Z</time>
      </trkpt>
      <trkpt lat="46.07139" lon="6.60339">
        <ele>814</ele>
        <time>2019-05-24T07:29:45Z</time>
      </trkpt>
      <trkpt lat="46.07101" lon="6.60339">
        <ele>808</ele>
        <time>2019-05-24T07:29:52Z</time>
      </trkpt>
      <trkpt lat="46.07085" lon="6.6035">
        <ele>806</ele>
        <time>2019-05-24T07:29:55Z</time>
      </trkpt>
      <trkpt lat="46.07069" lon="6.60373">
        <ele>805</ele>
        <time>2019-05-24T07:29:59Z</time>
      </trkpt>
      <trkpt lat="46.07055" lon="6.60375">
        <ele>802</ele>
        <time>2019-05-24T07:30:02Z</time>
      </trkpt>
      <trkpt lat="46.07048" lon="6.60357">
        <ele>798</ele>
        <time>2019-05-24T07:30:04Z</time>
      </trkpt>
      <trkpt lat="46.07059" lon="6.60323">
        <ele>797</ele>
        <time>2019-05-24T07:30:09Z</time>
      </trkpt>
      <trkpt lat="46.07079" lon="6.60294">
        <ele>797</ele>
        <time>2019-05-24T07:30:14Z</time>
      </trkpt>
      <trkpt lat="46.07108" lon="6.60269">
        <ele>799</ele>
        <time>2019-05-24T07:30:20Z</time>
      </trkpt>
      <trkpt lat="46.07153" lon="6.60172">
        <ele>794</ele>
        <time>2019-05-24T07:30:34Z</time>
      </trkpt>
      <trkpt lat="46.07176" lon="6.60144">
        <ele>796</ele>
        <time>2019-05-24T07:30:40Z</time>
      </trkpt>
      <trkpt lat="46.07178" lon="6.60132">
        <ele>795</ele>
        <time>2019-05-24T07:30:41Z</time>
      </trkpt>
      <trkpt lat="46.0718" lon="6.60089">
        <ele>790</ele>
        <time>2019-05-24T07:30:46Z</time>
      </trkpt>
      <trkpt lat="46.07196" lon="6.60019">
        <ele>787</ele>
        <time>2019-05-24T07:30:56Z</time>
      </trkpt>
      <trkpt lat="46.07206" lon="6.59984">
        <ele>785</ele>
        <time>2019-05-24T07:31:00Z</time>
      </trkpt>
      <trkpt lat="46.07238" lon="6.5991">
        <ele>782</ele>
        <time>2019-05-24T07:31:11Z</time>
      </trkpt>
      <trkpt lat="46.07261" lon="6.59868">
        <ele>782</ele>
        <time>2019-05-24T07:31:18Z</time>
      </trkpt>
      <trkpt lat="46.0727" lon="6.59834">
        <ele>779</ele>
        <time>2019-05-24T07:31:22Z</time>
      </trkpt>
      <trkpt lat="46.0727" lon="6.59805">
        <ele>778</ele>
        <time>2019-05-24T07:31:26Z</time>
      </trkpt>
      <trkpt lat="46.0729" lon="6.59738">
        <ele>776</ele>
        <time>2019-05-24T07:31:35Z</time>
      </trkpt>
      <trkpt lat="46.07302" lon="6.59721">
        <ele>776</ele>
        <time>2019-05-24T07:31:38Z</time>
      </trkpt>
      <trkpt lat="46.07334" lon="6.59694">
        <ele>777</ele>
        <time>2019-05-24T07:31:44Z</time>
      </trkpt>
      <trkpt lat="46.0736" lon="6.59678">
        <ele>777</ele>
        <time>2019-05-24T07:31:49Z</time>
      </trkpt>
      <trkpt lat="46.07393" lon="6.59671">
        <ele>777</ele>
        <time>2019-05-24T07:31:55Z</time>
      </trkpt>
      <trkpt lat="46.0743" lon="6.59641">
        <ele>777</ele>
        <time>2019-05-24T07:32:03Z</time>
      </trkpt>
      <trkpt lat="46.07505" lon="6.59575">
        <ele>780</ele>
        <time>2019-05-24T07:32:18Z</time>
      </trkpt>
      <trkpt lat="46.07524" lon="6.59554">
        <ele>780</ele>
        <time>2019-05-24T07:32:23Z</time>
      </trkpt>
      <trkpt lat="46.07556" lon="6.59554">
        <ele>786</ele>
        <time>2019-05-24T07:32:28Z</time>
      </trkpt>
      <trkpt lat="46.0758" lon="6.59536">
        <ele>788</ele>
        <time>2019-05-24T07:32:33Z</time>
      </trkpt>
      <trkpt lat="46.07601" lon="6.59505">
        <ele>788</ele>
        <time>2019-05-24T07:32:39Z</time>
      </trkpt>
      <trkpt lat="46.07631" lon="6.59433">
        <ele>786</ele>
        <time>2019-05-24T07:32:49Z</time>
      </trkpt>
      <trkpt lat="46.07706" lon="6.59372">
        <ele>798</ele>
        <time>2019-05-24T07:33:04Z</time>
      </trkpt>
      <trkpt lat="46.07744" lon="6.59317">
        <ele>797</ele>
        <time>2019-05-24T07:33:14Z</time>
      </trkpt>
      <trkpt lat="46.07815" lon="6.59248">
        <ele>801</ele>
        <time>2019-05-24T07:33:29Z</time>
      </trkpt>
      <trkpt lat="46.07832" lon="6.59236">
        <ele>802</ele>
        <time>2019-05-24T07:33:32Z</time>
      </trkpt>
      <trkpt lat="46.07868" lon="6.59238">
        <ele>805</ele>
        <time>2019-05-24T07:33:39Z</time>
      </trkpt>
      <trkpt lat="46.07899" lon="6.59286">
        <ele>822</ele>
        <time>2019-05-24T07:33:47Z</time>
      </trkpt>
      <trkpt lat="46.07948" lon="6.59305">
        <ele>830</ele>
        <time>2019-05-24T07:33:56Z</time>
      </trkpt>
      <trkpt lat="46.08023" lon="6.59393">
        <ele>836</ele>
        <time>2019-05-24T07:34:13Z</time>
      </trkpt>
      <trkpt lat="46.08048" lon="6.59431">
        <ele>836</ele>
        <time>2019-05-24T07:34:20Z</time>
      </trkpt>
      <trkpt lat="46.08081" lon="6.59413">
        <ele>823</ele>
        <time>2019-05-24T07:34:26Z</time>
      </trkpt>
      <trkpt lat="46.08095" lon="6.59402">
        <ele>822</ele>
        <time>2019-05-24T07:34:29Z</time>
      </trkpt>
      <trkpt lat="46.08104" lon="6.59384">
        <ele>821</ele>
        <time>2019-05-24T07:34:31Z</time>
      </trkpt>
      <trkpt lat="46.08122" lon="6.59326">
        <ele>814</ele>
        <time>2019-05-24T07:34:39Z</time>
      </trkpt>
      <trkpt lat="46.08137" lon="6.59296">
        <ele>811</ele>
        <time>2019-05-24T07:34:44Z</time>
      </trkpt>
      <trkpt lat="46.08162" lon="6.59274">
        <ele>810</ele>
        <time>2019-05-24T07:34:49Z</time>
      </trkpt>
      <trkpt lat="46.0821" lon="6.59236">
        <ele>812</ele>
        <time>2019-05-24T07:34:59Z</time>
      </trkpt>
      <trkpt lat="46.08251" lon="6.5921">
        <ele>815</ele>
        <time>2019-05-24T07:35:07Z</time>
      </trkpt>
      <trkpt lat="46.08293" lon="6.59168">
        <ele>812</ele>
        <time>2019-05-24T07:35:16Z</time>
      </trkpt>
      <trkpt lat="46.08318" lon="6.59161">
        <ele>815</ele>
        <time>2019-05-24T07:35:20Z</time>
      </trkpt>
      <trkpt lat="46.08341" lon="6.59163">
        <ele>819</ele>
        <time>2019-05-24T07:35:25Z</time>
      </trkpt>
      <trkpt lat="46.08356" lon="6.59156">
        <ele>817</ele>
        <time>2019-05-24T07:35:27Z</time>
      </trkpt>
      <trkpt lat="46.08365" lon="6.59138">
        <ele>811</ele>
        <time>2019-05-24T07:35:30Z</time>
      </trkpt>
      <trkpt lat="46.08377" lon="6.5907">
        <ele>792</ele>
        <time>2019-05-24T07:35:39Z</time>
      </trkpt>
      <trkpt lat="46.08379" lon="6.59049">
        <ele>790</ele>
        <time>2019-05-24T07:35:41Z</time>
      </trkpt>
      <trkpt lat="46.08389" lon="6.5903">
        <ele>788</ele>
        <time>2019-05-24T07:35:44Z</time>
      </trkpt>
      <trkpt lat="46.084" lon="6.5902">
        <ele>787</ele>
        <time>2019-05-24T07:35:47Z</time>
      </trkpt>
      <trkpt lat="46.08406" lon="6.59028">
        <ele>789</ele>
        <time>2019-05-24T07:35:48Z</time>
      </trkpt>
      <trkpt lat="46.0842" lon="6.59031">
        <ele>791</ele>
        <time>2019-05-24T07:35:51Z</time>
      </trkpt>
      <trkpt lat="46.08458" lon="6.59049">
        <ele>797</ele>
        <time>2019-05-24T07:35:58Z</time>
      </trkpt>
      <trkpt lat="46.0842" lon="6.59031">
        <ele>791</ele>
        <time>2019-05-24T07:36:05Z</time>
      </trkpt>
      <trkpt lat="46.08406" lon="6.59028">
        <ele>789</ele>
        <time>2019-05-24T07:36:07Z</time>
      </trkpt>
      <trkpt lat="46.084" lon="6.5902">
        <ele>787</ele>
        <time>2019-05-24T07:36:09Z</time>
      </trkpt>
      <trkpt lat="46.08417" lon="6.59018">
        <ele>788</ele>
        <time>2019-05-24T07:36:12Z</time>
      </trkpt>
      <trkpt lat="46.08453" lon="6.59033">
        <ele>794</ele>
        <time>2019-05-24T07:36:18Z</time>
      </trkpt>
      <trkpt lat="46.08471" lon="6.59029">
        <ele>795</ele>
        <time>2019-05-24T07:36:22Z</time>
      </trkpt>
      <trkpt lat="46.08479" lon="6.59016">
        <ele>794</ele>
        <time>2019-05-24T07:36:24Z</time>
      </trkpt>
      <trkpt lat="46.08488" lon="6.58987">
        <ele>791</ele>
        <time>2019-05-24T07:36:28Z</time>
      </trkpt>
      <trkpt lat="46.08506" lon="6.58878">
        <ele>780</ele>
        <time>2019-05-24T07:36:42Z</time>
      </trkpt>
      <trkpt lat="46.08506" lon="6.5885">
        <ele>777</ele>
        <time>2019-05-24T07:36:45Z</time>
      </trkpt>
      <trkpt lat="46.08502" lon="6.58815">
        <ele>773</ele>
        <time>2019-05-24T07:36:49Z</time>
      </trkpt>
      <trkpt lat="46.08504" lon="6.58791">
        <ele>774</ele>
        <time>2019-05-24T07:36:52Z</time>
      </trkpt>
      <trkpt lat="46.08516" lon="6.5875">
        <ele>780</ele>
        <time>2019-05-24T07:36:58Z</time>
      </trkpt>
      <trkpt lat="46.08518" lon="6.58722">
        <ele>781</ele>
        <time>2019-05-24T07:37:01Z</time>
      </trkpt>
      <trkpt lat="46.08518" lon="6.58694">
        <ele>780</ele>
        <time>2019-05-24T07:37:05Z</time>
      </trkpt>
      <trkpt lat="46.08514" lon="6.58665">
        <ele>778</ele>
        <time>2019-05-24T07:37:09Z</time>
      </trkpt>
      <trkpt lat="46.08513" lon="6.58635">
        <ele>775</ele>
        <time>2019-05-24T07:37:12Z</time>
      </trkpt>
      <trkpt lat="46.08525" lon="6.58543">
        <ele>769</ele>
        <time>2019-05-24T07:37:24Z</time>
      </trkpt>
      <trkpt lat="46.08528" lon="6.58509">
        <ele>763</ele>
        <time>2019-05-24T07:37:28Z</time>
      </trkpt>
      <trkpt lat="46.08533" lon="6.5848">
        <ele>761</ele>
        <time>2019-05-24T07:37:32Z</time>
      </trkpt>
      <trkpt lat="46.08542" lon="6.5846">
        <ele>761</ele>
        <time>2019-05-24T07:37:35Z</time>
      </trkpt>
      <trkpt lat="46.08564" lon="6.58434">
        <ele>761</ele>
        <time>2019-05-24T07:37:40Z</time>
      </trkpt>
      <trkpt lat="46.08572" lon="6.5842">
        <ele>760</ele>
        <time>2019-05-24T07:37:42Z</time>
      </trkpt>
      <trkpt lat="46.08583" lon="6.58378">
        <ele>753</ele>
        <time>2019-05-24T07:37:47Z</time>
      </trkpt>
      <trkpt lat="46.08593" lon="6.58362">
        <ele>751</ele>
        <time>2019-05-24T07:37:50Z</time>
      </trkpt>
      <trkpt lat="46.08608" lon="6.58349">
        <ele>751</ele>
        <time>2019-05-24T07:37:53Z</time>
      </trkpt>
      <trkpt lat="46.08639" lon="6.58336">
        <ele>751</ele>
        <time>2019-05-24T07:37:59Z</time>
      </trkpt>
      <trkpt lat="46.08689" lon="6.58342">
        <ele>754</ele>
        <time>2019-05-24T07:38:08Z</time>
      </trkpt>
      <trkpt lat="46.08683" lon="6.58332">
        <ele>752</ele>
        <time>2019-05-24T07:38:10Z</time>
      </trkpt>
      <trkpt lat="46.08655" lon="6.58326">
        <ele>751</ele>
        <time>2019-05-24T07:38:15Z</time>
      </trkpt>
      <trkpt lat="46.08628" lon="6.58324">
        <ele>748</ele>
        <time>2019-05-24T07:38:19Z</time>
      </trkpt>
      <trkpt lat="46.08598" lon="6.58328">
        <ele>745</ele>
        <time>2019-05-24T07:38:25Z</time>
      </trkpt>
      <trkpt lat="46.08565" lon="6.58342">
        <ele>746</ele>
        <time>2019-05-24T07:38:31Z</time>
      </trkpt>
      <trkpt lat="46.08543" lon="6.58356">
        <ele>748</ele>
        <time>2019-05-24T07:38:35Z</time>
      </trkpt>
      <trkpt lat="46.08488" lon="6.58399">
        <ele>744</ele>
        <time>2019-05-24T07:38:46Z</time>
      </trkpt>
      <trkpt lat="46.08482" lon="6.58409">
        <ele>742</ele>
        <time>2019-05-24T07:38:48Z</time>
      </trkpt>
      <trkpt lat="46.08488" lon="6.58508">
        <ele>749</ele>
        <time>2019-05-24T07:39:00Z</time>
      </trkpt>
      <trkpt lat="46.08486" lon="6.58517">
        <ele>749</ele>
        <time>2019-05-24T07:39:01Z</time>
      </trkpt>
      <trkpt lat="46.08436" lon="6.58597">
        <ele>739</ele>
        <time>2019-05-24T07:39:15Z</time>
      </trkpt>
      <trkpt lat="46.08414" lon="6.58614">
        <ele>732</ele>
        <time>2019-05-24T07:39:19Z</time>
      </trkpt>
      <trkpt lat="46.08401" lon="6.5863">
        <ele>729</ele>
        <time>2019-05-24T07:39:22Z</time>
      </trkpt>
      <trkpt lat="46.08385" lon="6.58665">
        <ele>727</ele>
        <time>2019-05-24T07:39:27Z</time>
      </trkpt>
      <trkpt lat="46.08369" lon="6.58687">
        <ele>726</ele>
        <time>2019-05-24T07:39:31Z</time>
      </trkpt>
      <trkpt lat="46.0835" lon="6.58699">
        <ele>724</ele>
        <time>2019-05-24T07:39:35Z</time>
      </trkpt>
      <trkpt lat="46.08327" lon="6.58707">
        <ele>722</ele>
        <time>2019-05-24T07:39:39Z</time>
      </trkpt>
      <trkpt lat="46.08247" lon="6.58703">
        <ele>710</ele>
        <time>2019-05-24T07:39:53Z</time>
      </trkpt>
      <trkpt lat="46.08231" lon="6.58699">
        <ele>705</ele>
        <time>2019-05-24T07:39:56Z</time>
      </trkpt>
      <trkpt lat="46.08224" lon="6.5869">
        <ele>700</ele>
        <time>2019-05-24T07:39:58Z</time>
      </trkpt>
      <trkpt lat="46.08225" lon="6.58679">
        <ele>697</ele>
        <time>2019-05-24T07:39:59Z</time>
      </trkpt>
      <trkpt lat="46.08271" lon="6.58631">
        <ele>696</ele>
        <time>2019-05-24T07:40:09Z</time>
      </trkpt>
      <trkpt lat="46.083" lon="6.58573">
        <ele>693</ele>
        <time>2019-05-24T07:40:18Z</time>
      </trkpt>
      <trkpt lat="46.08328" lon="6.58523">
        <ele>691</ele>
        <time>2019-05-24T07:40:26Z</time>
      </trkpt>
      <trkpt lat="46.08346" lon="6.58508">
        <ele>694</ele>
        <time>2019-05-24T07:40:30Z</time>
      </trkpt>
      <trkpt lat="46.08355" lon="6.58497">
        <ele>696</ele>
        <time>2019-05-24T07:40:32Z</time>
      </trkpt>
      <trkpt lat="46.08358" lon="6.58489">
        <ele>697</ele>
        <time>2019-05-24T07:40:33Z</time>
      </trkpt>
      <trkpt lat="46.08356" lon="6.58478">
        <ele>696</ele>
        <time>2019-05-24T07:40:34Z</time>
      </trkpt>
      <trkpt lat="46.08351" lon="6.58472">
        <ele>694</ele>
        <time>2019-05-24T07:40:36Z</time>
      </trkpt>
      <trkpt lat="46.08342" lon="6.58471">
        <ele>690</ele>
        <time>2019-05-24T07:40:37Z</time>
      </trkpt>
      <trkpt lat="46.08312" lon="6.58491">
        <ele>684</ele>
        <time>2019-05-24T07:40:43Z</time>
      </trkpt>
      <trkpt lat="46.08293" lon="6.58493">
        <ele>680</ele>
        <time>2019-05-24T07:40:47Z</time>
      </trkpt>
      <trkpt lat="46.08277" lon="6.58484">
        <ele>676</ele>
        <time>2019-05-24T07:40:50Z</time>
      </trkpt>
      <trkpt lat="46.08231" lon="6.58444">
        <ele>661</ele>
        <time>2019-05-24T07:40:59Z</time>
      </trkpt>
      <trkpt lat="46.08216" lon="6.58449">
        <ele>658</ele>
        <time>2019-05-24T07:41:02Z</time>
      </trkpt>
      <trkpt lat="46.08178" lon="6.5849">
        <ele>660</ele>
        <time>2019-05-24T07:41:10Z</time>
      </trkpt>
      <trkpt lat="46.08143" lon="6.58517">
        <ele>661</ele>
        <time>2019-05-24T07:41:17Z</time>
      </trkpt>
      <trkpt lat="46.08118" lon="6.5852">
        <ele>658</ele>
        <time>2019-05-24T07:41:22Z</time>
      </trkpt>
      <trkpt lat="46.08081" lon="6.58505">
        <ele>652</ele>
        <time>2019-05-24T07:41:29Z</time>
      </trkpt>
      <trkpt lat="46.08064" lon="6.585">
        <ele>649</ele>
        <time>2019-05-24T07:41:32Z</time>
      </trkpt>
      <trkpt lat="46.08047" lon="6.58502">
        <ele>648</ele>
        <time>2019-05-24T07:41:35Z</time>
      </trkpt>
      <trkpt lat="46.07995" lon="6.58533">
        <ele>647</ele>
        <time>2019-05-24T07:41:45Z</time>
      </trkpt>
      <trkpt lat="46.07925" lon="6.58441">
        <ele>632</ele>
        <time>2019-05-24T07:42:02Z</time>
      </trkpt>
      <trkpt lat="46.07913" lon="6.58431">
        <ele>630</ele>
        <time>2019-05-24T07:42:04Z</time>
      </trkpt>
      <trkpt lat="46.07904" lon="6.58428">
        <ele>628</ele>
        <time>2019-05-24T07:42:06Z</time>
      </trkpt>
      <trkpt lat="46.0789" lon="6.58432">
        <ele>626</ele>
        <time>2019-05-24T07:42:08Z</time>
      </trkpt>
      <trkpt lat="46.07874" lon="6.58447">
        <ele>624</ele>
        <time>2019-05-24T07:42:12Z</time>
      </trkpt>
      <trkpt lat="46.07845" lon="6.58495">
        <ele>624</ele>
        <time>2019-05-24T07:42:20Z</time>
      </trkpt>
      <trkpt lat="46.07788" lon="6.58567">
        <ele>618</ele>
        <time>2019-05-24T07:42:33Z</time>
      </trkpt>
      <trkpt lat="46.07749" lon="6.58635">
        <ele>619</ele>
        <time>2019-05-24T07:42:44Z</time>
      </trkpt>
      <trkpt lat="46.07731" lon="6.58662">
        <ele>618</ele>
        <time>2019-05-24T07:42:49Z</time>
      </trkpt>
      <trkpt lat="46.0772" lon="6.58669">
        <ele>617</ele>
        <time>2019-05-24T07:42:51Z</time>
      </trkpt>
      <trkpt lat="46.07714" lon="6.58667">
        <ele>615</ele>
        <time>2019-05-24T07:42:52Z</time>
      </trkpt>
      <trkpt lat="46.0771" lon="6.58661">
        <ele>613</ele>
        <time>2019-05-24T07:42:53Z</time>
      </trkpt>
      <trkpt lat="46.07709" lon="6.58654">
        <ele>611</ele>
        <time>2019-05-24T07:42:54Z</time>
      </trkpt>
      <trkpt lat="46.07723" lon="6.58623">
        <ele>611</ele>
        <time>2019-05-24T07:42:58Z</time>
      </trkpt>
      <trkpt lat="46.07726" lon="6.58595">
        <ele>607</ele>
        <time>2019-05-24T07:43:02Z</time>
      </trkpt>
      <trkpt lat="46.07725" lon="6.58562">
        <ele>603</ele>
        <time>2019-05-24T07:43:06Z</time>
      </trkpt>
      <trkpt lat="46.07735" lon="6.58538">
        <ele>603</ele>
        <time>2019-05-24T07:43:09Z</time>
      </trkpt>
      <trkpt lat="46.07751" lon="6.58511">
        <ele>604</ele>
        <time>2019-05-24T07:43:14Z</time>
      </trkpt>
      <trkpt lat="46.07766" lon="6.58469">
        <ele>603</ele>
        <time>2019-05-24T07:43:20Z</time>
      </trkpt>
      <trkpt lat="46.07774" lon="6.5843">
        <ele>601</ele>
        <time>2019-05-24T07:43:25Z</time>
      </trkpt>
      <trkpt lat="46.07773" lon="6.58414">
        <ele>599</ele>
        <time>2019-05-24T07:43:27Z</time>
      </trkpt>
      <trkpt lat="46.0778" lon="6.58414">
        <ele>601</ele>
        <time>2019-05-24T07:43:28Z</time>
      </trkpt>
      <trkpt lat="46.07786" lon="6.58411">
        <ele>602</ele>
        <time>2019-05-24T07:43:29Z</time>
      </trkpt>
      <trkpt lat="46.07791" lon="6.58405">
        <ele>603</ele>
        <time>2019-05-24T07:43:30Z</time>
      </trkpt>
      <trkpt lat="46.07809" lon="6.58359">
        <ele>603</ele>
        <time>2019-05-24T07:43:37Z</time>
      </trkpt>
      <trkpt lat="46.0782" lon="6.58335">
        <ele>604</ele>
        <time>2019-05-24T07:43:40Z</time>
      </trkpt>
      <trkpt lat="46.07838" lon="6.58311">
        <ele>604</ele>
        <time>2019-05-24T07:43:44Z</time>
      </trkpt>
      <trkpt lat="46.07851" lon="6.58298">
        <ele>604</ele>
        <time>2019-05-24T07:43:47Z</time>
      </trkpt>
      <trkpt lat="46.07867" lon="6.58286">
        <ele>603</ele>
        <time>2019-05-24T07:43:51Z</time>
      </trkpt>
      <trkpt lat="46.07923" lon="6.58268">
        <ele>605</ele>
        <time>2019-05-24T07:44:01Z</time>
      </trkpt>
      <trkpt lat="46.07965" lon="6.5826">
        <ele>608</ele>
        <time>2019-05-24T07:44:08Z</time>
      </trkpt>
      <trkpt lat="46.07978" lon="6.58259">
        <ele>610</ele>
        <time>2019-05-24T07:44:11Z</time>
      </trkpt>
      <trkpt lat="46.07994" lon="6.58261">
        <ele>612</ele>
        <time>2019-05-24T07:44:13Z</time>
      </trkpt>
      <trkpt lat="46.08009" lon="6.58267">
        <ele>613</ele>
        <time>2019-05-24T07:44:16Z</time>
      </trkpt>
      <trkpt lat="46.08047" lon="6.58284">
        <ele>615</ele>
        <time>2019-05-24T07:44:23Z</time>
      </trkpt>
      <trkpt lat="46.0806" lon="6.58286">
        <ele>615</ele>
        <time>2019-05-24T07:44:26Z</time>
      </trkpt>
      <trkpt lat="46.08071" lon="6.58286">
        <ele>615</ele>
        <time>2019-05-24T07:44:28Z</time>
      </trkpt>
      <trkpt lat="46.08095" lon="6.58277">
        <ele>616</ele>
        <time>2019-05-24T07:44:32Z</time>
      </trkpt>
      <trkpt lat="46.08115" lon="6.58261">
        <ele>617</ele>
        <time>2019-05-24T07:44:36Z</time>
      </trkpt>
      <trkpt lat="46.08153" lon="6.58213">
        <ele>621</ele>
        <time>2019-05-24T07:44:45Z</time>
      </trkpt>
      <trkpt lat="46.08179" lon="6.58174">
        <ele>630</ele>
        <time>2019-05-24T07:44:52Z</time>
      </trkpt>
      <trkpt lat="46.08188" lon="6.58156">
        <ele>635</ele>
        <time>2019-05-24T07:44:54Z</time>
      </trkpt>
      <trkpt lat="46.08196" lon="6.58136">
        <ele>639</ele>
        <time>2019-05-24T07:44:57Z</time>
      </trkpt>
      <trkpt lat="46.08202" lon="6.58114">
        <ele>642</ele>
        <time>2019-05-24T07:45:00Z</time>
      </trkpt>
      <trkpt lat="46.08207" lon="6.58081">
        <ele>645</ele>
        <time>2019-05-24T07:45:04Z</time>
      </trkpt>
      <trkpt lat="46.08214" lon="6.58013">
        <ele>637</ele>
        <time>2019-05-24T07:45:13Z</time>
      </trkpt>
      <trkpt lat="46.08225" lon="6.57963">
        <ele>634</ele>
        <time>2019-05-24T07:45:19Z</time>
      </trkpt>
      <trkpt lat="46.08234" lon="6.57936">
        <ele>632</ele>
        <time>2019-05-24T07:45:23Z</time>
      </trkpt>
      <trkpt lat="46.0825" lon="6.57901">
        <ele>630</ele>
        <time>2019-05-24T07:45:28Z</time>
      </trkpt>
      <trkpt lat="46.08295" lon="6.57821">
        <ele>634</ele>
        <time>2019-05-24T07:45:41Z</time>
      </trkpt>
      <trkpt lat="46.08301" lon="6.57805">
        <ele>637</ele>
        <time>2019-05-24T07:45:43Z</time>
      </trkpt>
      <trkpt lat="46.08306" lon="6.57775">
        <ele>639</ele>
        <time>2019-05-24T07:45:47Z</time>
      </trkpt>
      <trkpt lat="46.08305" lon="6.57753">
        <ele>640</ele>
        <time>2019-05-24T07:45:50Z</time>
      </trkpt>
      <trkpt lat="46.08299" lon="6.57708">
        <ele>639</ele>
        <time>2019-05-24T07:45:55Z</time>
      </trkpt>
      <trkpt lat="46.08297" lon="6.57678">
        <ele>640</ele>
        <time>2019-05-24T07:45:59Z</time>
      </trkpt>
      <trkpt lat="46.083" lon="6.57607">
        <ele>643</ele>
        <time>2019-05-24T07:46:08Z</time>
      </trkpt>
      <trkpt lat="46.08306" lon="6.57543">
        <ele>646</ele>
        <time>2019-05-24T07:46:16Z</time>
      </trkpt>
      <trkpt lat="46.08315" lon="6.57498">
        <ele>651</ele>
        <time>2019-05-24T07:46:22Z</time>
      </trkpt>
      <trkpt lat="46.08318" lon="6.575">
        <ele>653</ele>
        <time>2019-05-24T07:46:22Z</time>
      </trkpt>
      <trkpt lat="46.08321" lon="6.57513">
        <ele>655</ele>
        <time>2019-05-24T07:46:24Z</time>
      </trkpt>
      <trkpt lat="46.08317" lon="6.57523">
        <ele>652</ele>
        <time>2019-05-24T07:46:25Z</time>
      </trkpt>
      <trkpt lat="46.08315" lon="6.57544">
        <ele>651</ele>
        <time>2019-05-24T07:46:28Z</time>
      </trkpt>
      <trkpt lat="46.08316" lon="6.57564">
        <ele>652</ele>
        <time>2019-05-24T07:46:30Z</time>
      </trkpt>
      <trkpt lat="46.08346" lon="6.57649">
        <ele>658</ele>
        <time>2019-05-24T07:46:42Z</time>
      </trkpt>
      <trkpt lat="46.08366" lon="6.5768">
        <ele>663</ele>
        <time>2019-05-24T07:46:47Z</time>
      </trkpt>
      <trkpt lat="46.08384" lon="6.57703">
        <ele>669</ele>
        <time>2019-05-24T07:46:52Z</time>
      </trkpt>
      <trkpt lat="46.08396" lon="6.57731">
        <ele>672</ele>
        <time>2019-05-24T07:46:56Z</time>
      </trkpt>
      <trkpt lat="46.08402" lon="6.57759">
        <ele>674</ele>
        <time>2019-05-24T07:46:59Z</time>
      </trkpt>
      <trkpt lat="46.08401" lon="6.57791">
        <ele>672</ele>
        <time>2019-05-24T07:47:03Z</time>
      </trkpt>
      <trkpt lat="46.08405" lon="6.57794">
        <ele>673</ele>
        <time>2019-05-24T07:47:04Z</time>
      </trkpt>
      <trkpt lat="46.08409" lon="6.5779">
        <ele>675</ele>
        <time>2019-05-24T07:47:05Z</time>
      </trkpt>
      <trkpt lat="46.08418" lon="6.57763">
        <ele>680</ele>
        <time>2019-05-24T07:47:09Z</time>
      </trkpt>
      <trkpt lat="46.08428" lon="6.57718">
        <ele>683</ele>
        <time>2019-05-24T07:47:15Z</time>
      </trkpt>
      <trkpt lat="46.08432" lon="6.57712">
        <ele>684</ele>
        <time>2019-05-24T07:47:16Z</time>
      </trkpt>
      <trkpt lat="46.08437" lon="6.57713">
        <ele>686</ele>
        <time>2019-05-24T07:47:16Z</time>
      </trkpt>
      <trkpt lat="46.0844" lon="6.5772">
        <ele>686</ele>
        <time>2019-05-24T07:47:17Z</time>
      </trkpt>
      <trkpt lat="46.08442" lon="6.57739">
        <ele>687</ele>
        <time>2019-05-24T07:47:20Z</time>
      </trkpt>
      <trkpt lat="46.08442" lon="6.57766">
        <ele>686</ele>
        <time>2019-05-24T07:47:23Z</time>
      </trkpt>
      <trkpt lat="46.08444" lon="6.57785">
        <ele>686</ele>
        <time>2019-05-24T07:47:26Z</time>
      </trkpt>
      <trkpt lat="46.0847" lon="6.57859">
        <ele>692</ele>
        <time>2019-05-24T07:47:36Z</time>
      </trkpt>
      <trkpt lat="46.08485" lon="6.57894">
        <ele>697</ele>
        <time>2019-05-24T07:47:41Z</time>
      </trkpt>
      <trkpt lat="46.08507" lon="6.5792">
        <ele>704</ele>
        <time>2019-05-24T07:47:46Z</time>
      </trkpt>
      <trkpt lat="46.08523" lon="6.57935">
        <ele>708</ele>
        <time>2019-05-24T07:47:49Z</time>
      </trkpt>
      <trkpt lat="46.08542" lon="6.57948">
        <ele>712</ele>
        <time>2019-05-24T07:47:53Z</time>
      </trkpt>
      <trkpt lat="46.08554" lon="6.57961">
        <ele>715</ele>
        <time>2019-05-24T07:47:56Z</time>
      </trkpt>
      <trkpt lat="46.08577" lon="6.57978">
        <ele>720</ele>
        <time>2019-05-24T07:48:00Z</time>
      </trkpt>
      <trkpt lat="46.08591" lon="6.57999">
        <ele>723</ele>
        <time>2019-05-24T07:48:04Z</time>
      </trkpt>
      <trkpt lat="46.08602" lon="6.58021">
        <ele>726</ele>
        <time>2019-05-24T07:48:07Z</time>
      </trkpt>
      <trkpt lat="46.08612" lon="6.58055">
        <ele>729</ele>
        <time>2019-05-24T07:48:12Z</time>
      </trkpt>
      <trkpt lat="46.08617" lon="6.58098">
        <ele>731</ele>
        <time>2019-05-24T07:48:17Z</time>
      </trkpt>
      <trkpt lat="46.0862" lon="6.58108">
        <ele>731</ele>
        <time>2019-05-24T07:48:19Z</time>
      </trkpt>
      <trkpt lat="46.08624" lon="6.58113">
        <ele>731</ele>
        <time>2019-05-24T07:48:19Z</time>
      </trkpt>
      <trkpt lat="46.08642" lon="6.582">
        <ele>735</ele>
        <time>2019-05-24T07:48:31Z</time>
      </trkpt>
      <trkpt lat="46.08655" lon="6.58222">
        <ele>737</ele>
        <time>2019-05-24T07:48:34Z</time>
      </trkpt>
      <trkpt lat="46.08672" lon="6.58238">
        <ele>738</ele>
        <time>2019-05-24T07:48:38Z</time>
      </trkpt>
      <trkpt lat="46.08727" lon="6.58271">
        <ele>741</ele>
        <time>2019-05-24T07:48:48Z</time>
      </trkpt>
      <trkpt lat="46.08747" lon="6.58285">
        <ele>742</ele>
        <time>2019-05-24T07:48:52Z</time>
      </trkpt>
      <trkpt lat="46.088" lon="6.58177">
        <ele>744</ele>
        <time>2019-05-24T07:49:09Z</time>
      </trkpt>
      <trkpt lat="46.08817" lon="6.5812">
        <ele>749</ele>
        <time>2019-05-24T07:49:16Z</time>
      </trkpt>
      <trkpt lat="46.08832" lon="6.58087">
        <ele>753</ele>
        <time>2019-05-24T07:49:21Z</time>
      </trkpt>
      <trkpt lat="46.08856" lon="6.58057">
        <ele>756</ele>
        <time>2019-05-24T07:49:27Z</time>
      </trkpt>
      <trkpt lat="46.08909" lon="6.58028">
        <ele>759</ele>
        <time>2019-05-24T07:49:37Z</time>
      </trkpt>
      <trkpt lat="46.08962" lon="6.57983">
        <ele>764</ele>
        <time>2019-05-24T07:49:48Z</time>
      </trkpt>
      <trkpt lat="46.08977" lon="6.57975">
        <ele>765</ele>
        <time>2019-05-24T07:49:51Z</time>
      </trkpt>
      <trkpt lat="46.09021" lon="6.57963">
        <ele>768</ele>
        <time>2019-05-24T07:49:59Z</time>
      </trkpt>
      <trkpt lat="46.09041" lon="6.5796">
        <ele>770</ele>
        <time>2019-05-24T07:50:02Z</time>
      </trkpt>
      <trkpt lat="46.09077" lon="6.57978">
        <ele>770</ele>
        <time>2019-05-24T07:50:09Z</time>
      </trkpt>
      <trkpt lat="46.09094" lon="6.5799">
        <ele>770</ele>
        <time>2019-05-24T07:50:12Z</time>
      </trkpt>
      <trkpt lat="46.09105" lon="6.57994">
        <ele>771</ele>
        <time>2019-05-24T07:50:14Z</time>
      </trkpt>
      <trkpt lat="46.09114" lon="6.5799">
        <ele>773</ele>
        <time>2019-05-24T07:50:16Z</time>
      </trkpt>
      <trkpt lat="46.0912" lon="6.5798">
        <ele>775</ele>
        <time>2019-05-24T07:50:18Z</time>
      </trkpt>
      <trkpt lat="46.09119" lon="6.57964">
        <ele>776</ele>
        <time>2019-05-24T07:50:20Z</time>
      </trkpt>
      <trkpt lat="46.09096" lon="6.57928">
        <ele>778</ele>
        <time>2019-05-24T07:50:26Z</time>
      </trkpt>
      <trkpt lat="46.09074" lon="6.5791">
        <ele>777</ele>
        <time>2019-05-24T07:50:30Z</time>
      </trkpt>
      <trkpt lat="46.09075" lon="6.57893">
        <ele>778</ele>
        <time>2019-05-24T07:50:32Z</time>
      </trkpt>
      <trkpt lat="46.09063" lon="6.57775">
        <ele>780</ele>
        <time>2019-05-24T07:50:47Z</time>
      </trkpt>
      <trkpt lat="46.09066" lon="6.57728">
        <ele>783</ele>
        <time>2019-05-24T07:50:53Z</time>
      </trkpt>
      <trkpt lat="46.09071" lon="6.57696">
        <ele>786</ele>
        <time>2019-05-24T07:50:57Z</time>
      </trkpt>
      <trkpt lat="46.09082" lon="6.57684">
        <ele>785</ele>
        <time>2019-05-24T07:50:59Z</time>
      </trkpt>
      <trkpt lat="46.09096" lon="6.57678">
        <ele>785</ele>
        <time>2019-05-24T07:51:02Z</time>
      </trkpt>
      <trkpt lat="46.09223" lon="6.57605">
        <ele>784</ele>
        <time>2019-05-24T07:51:26Z</time>
      </trkpt>
      <trkpt lat="46.09248" lon="6.57586">
        <ele>782</ele>
        <time>2019-05-24T07:51:31Z</time>
      </trkpt>
      <trkpt lat="46.0929" lon="6.57583">
        <ele>774</ele>
        <time>2019-05-24T07:51:39Z</time>
      </trkpt>
      <trkpt lat="46.0935" lon="6.57509">
        <ele>771</ele>
        <time>2019-05-24T07:51:53Z</time>
      </trkpt>
      <trkpt lat="46.09376" lon="6.57489">
        <ele>769</ele>
        <time>2019-05-24T07:51:58Z</time>
      </trkpt>
      <trkpt lat="46.09423" lon="6.57488">
        <ele>760</ele>
        <time>2019-05-24T07:52:07Z</time>
      </trkpt>
      <trkpt lat="46.09448" lon="6.57435">
        <ele>765</ele>
        <time>2019-05-24T07:52:14Z</time>
      </trkpt>
      <trkpt lat="46.09465" lon="6.57407">
        <ele>767</ele>
        <time>2019-05-24T07:52:19Z</time>
      </trkpt>
      <trkpt lat="46.09485" lon="6.57383">
        <ele>770</ele>
        <time>2019-05-24T07:52:24Z</time>
      </trkpt>
      <trkpt lat="46.09486" lon="6.57353">
        <ele>780</ele>
        <time>2019-05-24T07:52:27Z</time>
      </trkpt>
      <trkpt lat="46.09498" lon="6.57336">
        <ele>782</ele>
        <time>2019-05-24T07:52:30Z</time>
      </trkpt>
      <trkpt lat="46.09527" lon="6.5733">
        <ele>774</ele>
        <time>2019-05-24T07:52:36Z</time>
      </trkpt>
      <trkpt lat="46.09538" lon="6.57323">
        <ele>772</ele>
        <time>2019-05-24T07:52:38Z</time>
      </trkpt>
      <trkpt lat="46.09585" lon="6.57302">
        <ele>760</ele>
        <time>2019-05-24T07:52:46Z</time>
      </trkpt>
      <trkpt lat="46.09596" lon="6.57293">
        <ele>758</ele>
        <time>2019-05-24T07:52:49Z</time>
      </trkpt>
      <trkpt lat="46.09612" lon="6.57193">
        <ele>753</ele>
        <time>2019-05-24T07:53:01Z</time>
      </trkpt>
      <trkpt lat="46.09635" lon="6.57153">
        <ele>745</ele>
        <time>2019-05-24T07:53:08Z</time>
      </trkpt>
      <trkpt lat="46.09666" lon="6.57069">
        <ele>746</ele>
        <time>2019-05-24T07:53:20Z</time>
      </trkpt>
      <trkpt lat="46.09731" lon="6.56958">
        <ele>746</ele>
        <time>2019-05-24T07:53:37Z</time>
      </trkpt>
      <trkpt lat="46.09754" lon="6.56891">
        <ele>744</ele>
        <time>2019-05-24T07:53:47Z</time>
      </trkpt>
      <trkpt lat="46.09764" lon="6.5682">
        <ele>747</ele>
        <time>2019-05-24T07:53:56Z</time>
      </trkpt>
      <trkpt lat="46.09787" lon="6.56787">
        <ele>738</ele>
        <time>2019-05-24T07:54:01Z</time>
      </trkpt>
      <trkpt lat="46.09802" lon="6.56736">
        <ele>734</ele>
        <time>2019-05-24T07:54:08Z</time>
      </trkpt>
      <trkpt lat="46.09828" lon="6.56701">
        <ele>726</ele>
        <time>2019-05-24T07:54:15Z</time>
      </trkpt>
      <trkpt lat="46.09837" lon="6.56682">
        <ele>725</ele>
        <time>2019-05-24T07:54:17Z</time>
      </trkpt>
      <trkpt lat="46.09841" lon="6.56647">
        <ele>728</ele>
        <time>2019-05-24T07:54:22Z</time>
      </trkpt>
      <trkpt lat="46.09846" lon="6.56635">
        <ele>729</ele>
        <time>2019-05-24T07:54:24Z</time>
      </trkpt>
      <trkpt lat="46.09853" lon="6.5663">
        <ele>728</ele>
        <time>2019-05-24T07:54:25Z</time>
      </trkpt>
      <trkpt lat="46.09868" lon="6.5663">
        <ele>725</ele>
        <time>2019-05-24T07:54:28Z</time>
      </trkpt>
      <trkpt lat="46.09877" lon="6.56627">
        <ele>724</ele>
        <time>2019-05-24T07:54:29Z</time>
      </trkpt>
      <trkpt lat="46.09886" lon="6.5662">
        <ele>723</ele>
        <time>2019-05-24T07:54:31Z</time>
      </trkpt>
      <trkpt lat="46.09892" lon="6.56612">
        <ele>722</ele>
        <time>2019-05-24T07:54:33Z</time>
      </trkpt>
      <trkpt lat="46.09908" lon="6.56598">
        <ele>720</ele>
        <time>2019-05-24T07:54:36Z</time>
      </trkpt>
      <trkpt lat="46.09922" lon="6.56558">
        <ele>724</ele>
        <time>2019-05-24T07:54:41Z</time>
      </trkpt>
      <trkpt lat="46.09939" lon="6.56543">
        <ele>725</ele>
        <time>2019-05-24T07:54:45Z</time>
      </trkpt>
      <trkpt lat="46.09959" lon="6.56541">
        <ele>723</ele>
        <time>2019-05-24T07:54:48Z</time>
      </trkpt>
      <trkpt lat="46.09973" lon="6.56558">
        <ele>717</ele>
        <time>2019-05-24T07:54:52Z</time>
      </trkpt>
      <trkpt lat="46.09975" lon="6.56593">
        <ele>708</ele>
        <time>2019-05-24T07:54:56Z</time>
      </trkpt>
      <trkpt lat="46.09986" lon="6.5665">
        <ele>701</ele>
        <time>2019-05-24T07:55:03Z</time>
      </trkpt>
      <trkpt lat="46.09978" lon="6.56686">
        <ele>700</ele>
        <time>2019-05-24T07:55:08Z</time>
      </trkpt>
      <trkpt lat="46.09983" lon="6.56769">
        <ele>693</ele>
        <time>2019-05-24T07:55:18Z</time>
      </trkpt>
      <trkpt lat="46.09979" lon="6.56789">
        <ele>692</ele>
        <time>2019-05-24T07:55:21Z</time>
      </trkpt>
      <trkpt lat="46.09979" lon="6.568">
        <ele>691</ele>
        <time>2019-05-24T07:55:22Z</time>
      </trkpt>
      <trkpt lat="46.09984" lon="6.56815">
        <ele>689</ele>
        <time>2019-05-24T07:55:24Z</time>
      </trkpt>
      <trkpt lat="46.09997" lon="6.56826">
        <ele>685</ele>
        <time>2019-05-24T07:55:27Z</time>
      </trkpt>
      <trkpt lat="46.10007" lon="6.56841">
        <ele>682</ele>
        <time>2019-05-24T07:55:30Z</time>
      </trkpt>
      <trkpt lat="46.1001" lon="6.56864">
        <ele>681</ele>
        <time>2019-05-24T07:55:32Z</time>
      </trkpt>
      <trkpt lat="46.10012" lon="6.56906">
        <ele>678</ele>
        <time>2019-05-24T07:55:38Z</time>
      </trkpt>
      <trkpt lat="46.10008" lon="6.56927">
        <ele>676</ele>
        <time>2019-05-24T07:55:40Z</time>
      </trkpt>
      <trkpt lat="46.09999" lon="6.56945">
        <ele>674</ele>
        <time>2019-05-24T07:55:43Z</time>
      </trkpt>
      <trkpt lat="46.09939" lon="6.57008">
        <ele>671</ele>
        <time>2019-05-24T07:55:56Z</time>
      </trkpt>
      <trkpt lat="46.09935" lon="6.57038">
        <ele>669</ele>
        <time>2019-05-24T07:56:00Z</time>
      </trkpt>
      <trkpt lat="46.09898" lon="6.57098">
        <ele>671</ele>
        <time>2019-05-24T07:56:10Z</time>
      </trkpt>
      <trkpt lat="46.09893" lon="6.57146">
        <ele>666</ele>
        <time>2019-05-24T07:56:16Z</time>
      </trkpt>
      <trkpt lat="46.09871" lon="6.572">
        <ele>666</ele>
        <time>2019-05-24T07:56:24Z</time>
      </trkpt>
      <trkpt lat="46.09858" lon="6.57244">
        <ele>666</ele>
        <time>2019-05-24T07:56:30Z</time>
      </trkpt>
      <trkpt lat="46.09861" lon="6.57273">
        <ele>661</ele>
        <time>2019-05-24T07:56:33Z</time>
      </trkpt>
      <trkpt lat="46.09871" lon="6.57327">
        <ele>653</ele>
        <time>2019-05-24T07:56:40Z</time>
      </trkpt>
      <trkpt lat="46.0987" lon="6.57375">
        <ele>650</ele>
        <time>2019-05-24T07:56:46Z</time>
      </trkpt>
      <trkpt lat="46.09836" lon="6.57434">
        <ele>655</ele>
        <time>2019-05-24T07:56:55Z</time>
      </trkpt>
      <trkpt lat="46.09823" lon="6.57489">
        <ele>655</ele>
        <time>2019-05-24T07:57:03Z</time>
      </trkpt>
      <trkpt lat="46.09821" lon="6.57537">
        <ele>653</ele>
        <time>2019-05-24T07:57:09Z</time>
      </trkpt>
      <trkpt lat="46.09809" lon="6.5756">
        <ele>655</ele>
        <time>2019-05-24T07:57:12Z</time>
      </trkpt>
      <trkpt lat="46.09807" lon="6.57585">
        <ele>654</ele>
        <time>2019-05-24T07:57:15Z</time>
      </trkpt>
      <trkpt lat="46.09768" lon="6.577">
        <ele>654</ele>
        <time>2019-05-24T07:57:31Z</time>
      </trkpt>
      <trkpt lat="46.0975" lon="6.57744">
        <ele>654</ele>
        <time>2019-05-24T07:57:37Z</time>
      </trkpt>
      <trkpt lat="46.09717" lon="6.57782">
        <ele>666</ele>
        <time>2019-05-24T07:57:45Z</time>
      </trkpt>
      <trkpt lat="46.09709" lon="6.57803">
        <ele>668</ele>
        <time>2019-05-24T07:57:48Z</time>
      </trkpt>
      <trkpt lat="46.09706" lon="6.57903">
        <ele>656</ele>
        <time>2019-05-24T07:58:00Z</time>
      </trkpt>
      <trkpt lat="46.09702" lon="6.57929">
        <ele>654</ele>
        <time>2019-05-24T07:58:03Z</time>
      </trkpt>
      <trkpt lat="46.09702" lon="6.57966">
        <ele>651</ele>
        <time>2019-05-24T07:58:08Z</time>
      </trkpt>
      <trkpt lat="46.09669" lon="6.58069">
        <ele>647</ele>
        <time>2019-05-24T07:58:22Z</time>
      </trkpt>
      <trkpt lat="46.09637" lon="6.5812">
        <ele>659</ele>
        <time>2019-05-24T07:58:30Z</time>
      </trkpt>
      <trkpt lat="46.09602" lon="6.58257">
        <ele>656</ele>
        <time>2019-05-24T07:58:48Z</time>
      </trkpt>
      <trkpt lat="46.09577" lon="6.58325">
        <ele>653</ele>
        <time>2019-05-24T07:58:58Z</time>
      </trkpt>
      <trkpt lat="46.09563" lon="6.58391">
        <ele>654</ele>
        <time>2019-05-24T07:59:06Z</time>
      </trkpt>
      <trkpt lat="46.09557" lon="6.58443">
        <ele>657</ele>
        <time>2019-05-24T07:59:13Z</time>
      </trkpt>
      <trkpt lat="46.09529" lon="6.58494">
        <ele>667</ele>
        <time>2019-05-24T07:59:21Z</time>
      </trkpt>
      <trkpt lat="46.09527" lon="6.58529">
        <ele>667</ele>
        <time>2019-05-24T07:59:25Z</time>
      </trkpt>
      <trkpt lat="46.09517" lon="6.58558">
        <ele>669</ele>
        <time>2019-05-24T07:59:29Z</time>
      </trkpt>
      <trkpt lat="46.09518" lon="6.58574">
        <ele>669</ele>
        <time>2019-05-24T07:59:31Z</time>
      </trkpt>
      <trkpt lat="46.09598" lon="6.58668">
        <ele>651</ele>
        <time>2019-05-24T07:59:50Z</time>
      </trkpt>
      <trkpt lat="46.09618" lon="6.58711">
        <ele>646</ele>
        <time>2019-05-24T07:59:56Z</time>
      </trkpt>
      <trkpt lat="46.09636" lon="6.58736">
        <ele>642</ele>
        <time>2019-05-24T08:00:01Z</time>
      </trkpt>
      <trkpt lat="46.09671" lon="6.58855">
        <ele>638</ele>
        <time>2019-05-24T08:00:16Z</time>
      </trkpt>
      <trkpt lat="46.09672" lon="6.58901">
        <ele>636</ele>
        <time>2019-05-24T08:00:22Z</time>
      </trkpt>
      <trkpt lat="46.09666" lon="6.58966">
        <ele>635</ele>
        <time>2019-05-24T08:00:30Z</time>
      </trkpt>
      <trkpt lat="46.09667" lon="6.58998">
        <ele>633</ele>
        <time>2019-05-24T08:00:34Z</time>
      </trkpt>
      <trkpt lat="46.0967" lon="6.59003">
        <ele>633</ele>
        <time>2019-05-24T08:00:35Z</time>
      </trkpt>
      <trkpt lat="46.09675" lon="6.58997">
        <ele>632</ele>
        <time>2019-05-24T08:00:36Z</time>
      </trkpt>
      <trkpt lat="46.09686" lon="6.58987">
        <ele>630</ele>
        <time>2019-05-24T08:00:38Z</time>
      </trkpt>
      <trkpt lat="46.09706" lon="6.58985">
        <ele>627</ele>
        <time>2019-05-24T08:00:42Z</time>
      </trkpt>
      <trkpt lat="46.10377" lon="6.59062">
        <ele>634</ele>
        <time>2019-05-24T08:02:42Z</time>
      </trkpt>
      <trkpt lat="46.10509" lon="6.59078">
        <ele>638</ele>
        <time>2019-05-24T08:03:05Z</time>
      </trkpt>
      <trkpt lat="46.10531" lon="6.59083">
        <ele>639</ele>
        <time>2019-05-24T08:03:09Z</time>
      </trkpt>
      <trkpt lat="46.10547" lon="6.59082">
        <ele>639</ele>
        <time>2019-05-24T08:03:12Z</time>
      </trkpt>
      <trkpt lat="46.10687" lon="6.59098">
        <ele>643</ele>
        <time>2019-05-24T08:03:37Z</time>
      </trkpt>
      <trkpt lat="46.10743" lon="6.59105">
        <ele>644</ele>
        <time>2019-05-24T08:03:47Z</time>
      </trkpt>
      <trkpt lat="46.10768" lon="6.59112">
        <ele>646</ele>
        <time>2019-05-24T08:03:52Z</time>
      </trkpt>
      <trkpt lat="46.10782" lon="6.59122">
        <ele>647</ele>
        <time>2019-05-24T08:03:54Z</time>
      </trkpt>
      <trkpt lat="46.10782" lon="6.59127">
        <ele>647</ele>
        <time>2019-05-24T08:03:55Z</time>
      </trkpt>
      <trkpt lat="46.10784" lon="6.59132">
        <ele>648</ele>
        <time>2019-05-24T08:03:56Z</time>
      </trkpt>
      <trkpt lat="46.10787" lon="6.59134">
        <ele>648</ele>
        <time>2019-05-24T08:03:56Z</time>
      </trkpt>
      <trkpt lat="46.10793" lon="6.59133">
        <ele>648</ele>
        <time>2019-05-24T08:03:57Z</time>
      </trkpt>
      <trkpt lat="46.10795" lon="6.5913">
        <ele>648</ele>
        <time>2019-05-24T08:03:58Z</time>
      </trkpt>
      <trkpt lat="46.10797" lon="6.59122">
        <ele>648</ele>
        <time>2019-05-24T08:03:59Z</time>
      </trkpt>
      <trkpt lat="46.10794" lon="6.59115">
        <ele>648</ele>
        <time>2019-05-24T08:04:00Z</time>
      </trkpt>
      <trkpt lat="46.10792" lon="6.59113">
        <ele>648</ele>
        <time>2019-05-24T08:04:01Z</time>
      </trkpt>
      <trkpt lat="46.10796" lon="6.59057">
        <ele>646</ele>
        <time>2019-05-24T08:04:07Z</time>
      </trkpt>
      <trkpt lat="46.10818" lon="6.58638">
        <ele>639</ele>
        <time>2019-05-24T08:04:59Z</time>
      </trkpt>
      <trkpt lat="46.10801" lon="6.58612">
        <ele>639</ele>
        <time>2019-05-24T08:05:04Z</time>
      </trkpt>
      <trkpt lat="46.1079" lon="6.58581">
        <ele>638</ele>
        <time>2019-05-24T08:05:08Z</time>
      </trkpt>
      <trkpt lat="46.10774" lon="6.58451">
        <ele>638</ele>
        <time>2019-05-24T08:05:24Z</time>
      </trkpt>
      <trkpt lat="46.10772" lon="6.58394">
        <ele>637</ele>
        <time>2019-05-24T08:05:31Z</time>
      </trkpt>
      <trkpt lat="46.10754" lon="6.58371">
        <ele>636</ele>
        <time>2019-05-24T08:05:36Z</time>
      </trkpt>
      <trkpt lat="46.10702" lon="6.58324">
        <ele>634</ele>
        <time>2019-05-24T08:05:47Z</time>
      </trkpt>
      <trkpt lat="46.1069" lon="6.58303">
        <ele>634</ele>
        <time>2019-05-24T08:05:50Z</time>
      </trkpt>
      <trkpt lat="46.10637" lon="6.58147">
        <ele>628</ele>
        <time>2019-05-24T08:06:11Z</time>
      </trkpt>
      <trkpt lat="46.10597" lon="6.57994">
        <ele>629</ele>
        <time>2019-05-24T08:06:31Z</time>
      </trkpt>
      <trkpt lat="46.10592" lon="6.57916">
        <ele>629</ele>
        <time>2019-05-24T08:06:41Z</time>
      </trkpt>
      <trkpt lat="46.10593" lon="6.57875">
        <ele>629</ele>
        <time>2019-05-24T08:06:46Z</time>
      </trkpt>
      <trkpt lat="46.10577" lon="6.57888">
        <ele>629</ele>
        <time>2019-05-24T08:06:49Z</time>
      </trkpt>
      <trkpt lat="46.10565" lon="6.57893">
        <ele>628</ele>
        <time>2019-05-24T08:06:52Z</time>
      </trkpt>
      <trkpt lat="46.10552" lon="6.57891">
        <ele>627</ele>
        <time>2019-05-24T08:06:54Z</time>
      </trkpt>
      <trkpt lat="46.10385" lon="6.57797">
        <ele>619</ele>
        <time>2019-05-24T08:07:26Z</time>
      </trkpt>
      <trkpt lat="46.10552" lon="6.57891">
        <ele>627</ele>
        <time>2019-05-24T08:07:58Z</time>
      </trkpt>
      <trkpt lat="46.10565" lon="6.57893">
        <ele>628</ele>
        <time>2019-05-24T08:08:00Z</time>
      </trkpt>
      <trkpt lat="46.10577" lon="6.57888">
        <ele>629</ele>
        <time>2019-05-24T08:08:02Z</time>
      </trkpt>
      <trkpt lat="46.10593" lon="6.57875">
        <ele>629</ele>
        <time>2019-05-24T08:08:06Z</time>
      </trkpt>
      <trkpt lat="46.10592" lon="6.57916">
        <ele>629</ele>
        <time>2019-05-24T08:08:11Z</time>
      </trkpt>
      <trkpt lat="46.10597" lon="6.57994">
        <ele>629</ele>
        <time>2019-05-24T08:08:20Z</time>
      </trkpt>
      <trkpt lat="46.10637" lon="6.58147">
        <ele>628</ele>
        <time>2019-05-24T08:08:41Z</time>
      </trkpt>
      <trkpt lat="46.1069" lon="6.58303">
        <ele>634</ele>
        <time>2019-05-24T08:09:02Z</time>
      </trkpt>
      <trkpt lat="46.10702" lon="6.58324">
        <ele>634</ele>
        <time>2019-05-24T08:09:05Z</time>
      </trkpt>
      <trkpt lat="46.10754" lon="6.58371">
        <ele>636</ele>
        <time>2019-05-24T08:09:16Z</time>
      </trkpt>
      <trkpt lat="46.10772" lon="6.58394">
        <ele>637</ele>
        <time>2019-05-24T08:09:21Z</time>
      </trkpt>
      <trkpt lat="46.10774" lon="6.58451">
        <ele>638</ele>
        <time>2019-05-24T08:09:28Z</time>
      </trkpt>
      <trkpt lat="46.1079" lon="6.58581">
        <ele>638</ele>
        <time>2019-05-24T08:09:44Z</time>
      </trkpt>
      <trkpt lat="46.10801" lon="6.58612">
        <ele>639</ele>
        <time>2019-05-24T08:09:48Z</time>
      </trkpt>
      <trkpt lat="46.10818" lon="6.58638">
        <ele>639</ele>
        <time>2019-05-24T08:09:53Z</time>
      </trkpt>
      <trkpt lat="46.10793" lon="6.59099">
        <ele>647</ele>
        <time>2019-05-24T08:10:50Z</time>
      </trkpt>
      <trkpt lat="46.10792" lon="6.59113">
        <ele>648</ele>
        <time>2019-05-24T08:10:51Z</time>
      </trkpt>
      <trkpt lat="46.10787" lon="6.59113">
        <ele>647</ele>
        <time>2019-05-24T08:10:52Z</time>
      </trkpt>
      <trkpt lat="46.10784" lon="6.59115">
        <ele>647</ele>
        <time>2019-05-24T08:10:53Z</time>
      </trkpt>
      <trkpt lat="46.10782" lon="6.59122">
        <ele>647</ele>
        <time>2019-05-24T08:10:54Z</time>
      </trkpt>
      <trkpt lat="46.10782" lon="6.59127">
        <ele>647</ele>
        <time>2019-05-24T08:10:54Z</time>
      </trkpt>
      <trkpt lat="46.10784" lon="6.59132">
        <ele>648</ele>
        <time>2019-05-24T08:10:55Z</time>
      </trkpt>
      <trkpt lat="46.10787" lon="6.59134">
        <ele>648</ele>
        <time>2019-05-24T08:10:56Z</time>
      </trkpt>
      <trkpt lat="46.10756" lon="6.59228">
        <ele>647</ele>
        <time>2019-05-24T08:11:08Z</time>
      </trkpt>
      <trkpt lat="46.10742" lon="6.59279">
        <ele>646</ele>
        <time>2019-05-24T08:11:15Z</time>
      </trkpt>
      <trkpt lat="46.10741" lon="6.5929">
        <ele>646</ele>
        <time>2019-05-24T08:11:17Z</time>
      </trkpt>
      <trkpt lat="46.10738" lon="6.59298">
        <ele>645</ele>
        <time>2019-05-24T08:11:18Z</time>
      </trkpt>
      <trkpt lat="46.10727" lon="6.59341">
        <ele>644</ele>
        <time>2019-05-24T08:11:23Z</time>
      </trkpt>
      <trkpt lat="46.10722" lon="6.59374">
        <ele>642</ele>
        <time>2019-05-24T08:11:28Z</time>
      </trkpt>
      <trkpt lat="46.10697" lon="6.59787">
        <ele>633</ele>
        <time>2019-05-24T08:12:19Z</time>
      </trkpt>
      <trkpt lat="46.10688" lon="6.59883">
        <ele>632</ele>
        <time>2019-05-24T08:12:31Z</time>
      </trkpt>
      <trkpt lat="46.10669" lon="6.59997">
        <ele>631</ele>
        <time>2019-05-24T08:12:45Z</time>
      </trkpt>
      <trkpt lat="46.10665" lon="6.60035">
        <ele>631</ele>
        <time>2019-05-24T08:12:50Z</time>
      </trkpt>
      <trkpt lat="46.10654" lon="6.604">
        <ele>631</ele>
        <time>2019-05-24T08:13:35Z</time>
      </trkpt>
      <trkpt lat="46.1065" lon="6.6043">
        <ele>632</ele>
        <time>2019-05-24T08:13:39Z</time>
      </trkpt>
      <trkpt lat="46.10625" lon="6.60544">
        <ele>630</ele>
        <time>2019-05-24T08:13:53Z</time>
      </trkpt>
      <trkpt lat="46.10612" lon="6.60674">
        <ele>630</ele>
        <time>2019-05-24T08:14:10Z</time>
      </trkpt>
      <trkpt lat="46.10607" lon="6.60757">
        <ele>629</ele>
        <time>2019-05-24T08:14:20Z</time>
      </trkpt>
      <trkpt lat="46.10606" lon="6.60787">
        <ele>629</ele>
        <time>2019-05-24T08:14:24Z</time>
      </trkpt>
      <trkpt lat="46.10597" lon="6.61377">
        <ele>634</ele>
        <time>2019-05-24T08:15:36Z</time>
      </trkpt>
      <trkpt lat="46.10594" lon="6.61419">
        <ele>635</ele>
        <time>2019-05-24T08:15:42Z</time>
      </trkpt>
      <trkpt lat="46.10577" lon="6.61524">
        <ele>636</ele>
        <time>2019-05-24T08:15:55Z</time>
      </trkpt>
      <trkpt lat="46.10563" lon="6.61585">
        <ele>637</ele>
        <time>2019-05-24T08:16:03Z</time>
      </trkpt>
      <trkpt lat="46.10558" lon="6.61628">
        <ele>637</ele>
        <time>2019-05-24T08:16:08Z</time>
      </trkpt>
      <trkpt lat="46.10559" lon="6.62002">
        <ele>636</ele>
        <time>2019-05-24T08:16:54Z</time>
      </trkpt>
      <trkpt lat="46.10557" lon="6.6205">
        <ele>638</ele>
        <time>2019-05-24T08:17:00Z</time>
      </trkpt>
      <trkpt lat="46.10554" lon="6.62077">
        <ele>639</ele>
        <time>2019-05-24T08:17:04Z</time>
      </trkpt>
      <trkpt lat="46.10536" lon="6.62192">
        <ele>640</ele>
        <time>2019-05-24T08:17:18Z</time>
      </trkpt>
      <trkpt lat="46.10516" lon="6.62287">
        <ele>642</ele>
        <time>2019-05-24T08:17:30Z</time>
      </trkpt>
      <trkpt lat="46.10424" lon="6.62588">
        <ele>642</ele>
        <time>2019-05-24T08:18:11Z</time>
      </trkpt>
      <trkpt lat="46.10359" lon="6.6277">
        <ele>637</ele>
        <time>2019-05-24T08:18:36Z</time>
      </trkpt>
      <trkpt lat="46.10305" lon="6.62889">
        <ele>639</ele>
        <time>2019-05-24T08:18:54Z</time>
      </trkpt>
      <trkpt lat="46.10259" lon="6.63005">
        <ele>638</ele>
        <time>2019-05-24T08:19:10Z</time>
      </trkpt>
      <trkpt lat="46.10168" lon="6.63268">
        <ele>644</ele>
        <time>2019-05-24T08:19:47Z</time>
      </trkpt>
      <trkpt lat="46.10158" lon="6.63305">
        <ele>646</ele>
        <time>2019-05-24T08:19:52Z</time>
      </trkpt>
      <trkpt lat="46.10151" lon="6.63343">
        <ele>647</ele>
        <time>2019-05-24T08:19:56Z</time>
      </trkpt>
      <trkpt lat="46.10139" lon="6.63565">
        <ele>643</ele>
        <time>2019-05-24T08:20:24Z</time>
      </trkpt>
      <trkpt lat="46.1013" lon="6.63649">
        <ele>643</ele>
        <time>2019-05-24T08:20:34Z</time>
      </trkpt>
      <trkpt lat="46.10123" lon="6.63702">
        <ele>644</ele>
        <time>2019-05-24T08:20:41Z</time>
      </trkpt>
      <trkpt lat="46.10108" lon="6.63781">
        <ele>644</ele>
        <time>2019-05-24T08:20:51Z</time>
      </trkpt>
      <trkpt lat="46.10034" lon="6.64151">
        <ele>644</ele>
        <time>2019-05-24T08:21:39Z</time>
      </trkpt>
      <trkpt lat="46.09871" lon="6.65141">
        <ele>653</ele>
        <time>2019-05-24T08:23:44Z</time>
      </trkpt>
      <trkpt lat="46.09859" lon="6.65198">
        <ele>653</ele>
        <time>2019-05-24T08:23:51Z</time>
      </trkpt>
      <trkpt lat="46.09695" lon="6.65788">
        <ele>654</ele>
        <time>2019-05-24T08:25:10Z</time>
      </trkpt>
      <trkpt lat="46.09665" lon="6.65893">
        <ele>654</ele>
        <time>2019-05-24T08:25:24Z</time>
      </trkpt>
      <trkpt lat="46.096" lon="6.66098">
        <ele>656</ele>
        <time>2019-05-24T08:25:52Z</time>
      </trkpt>
      <trkpt lat="46.09511" lon="6.66415">
        <ele>665</ele>
        <time>2019-05-24T08:26:34Z</time>
      </trkpt>
      <trkpt lat="46.095" lon="6.66449">
        <ele>663</ele>
        <time>2019-05-24T08:26:39Z</time>
      </trkpt>
      <trkpt lat="46.09485" lon="6.6649">
        <ele>661</ele>
        <time>2019-05-24T08:26:44Z</time>
      </trkpt>
      <trkpt lat="46.09467" lon="6.66527">
        <ele>661</ele>
        <time>2019-05-24T08:26:50Z</time>
      </trkpt>
      <trkpt lat="46.09438" lon="6.66577">
        <ele>660</ele>
        <time>2019-05-24T08:26:58Z</time>
      </trkpt>
      <trkpt lat="46.09345" lon="6.66728">
        <ele>661</ele>
        <time>2019-05-24T08:27:23Z</time>
      </trkpt>
      <trkpt lat="46.09324" lon="6.66778">
        <ele>659</ele>
        <time>2019-05-24T08:27:30Z</time>
      </trkpt>
      <trkpt lat="46.09146" lon="6.67234">
        <ele>664</ele>
        <time>2019-05-24T08:28:35Z</time>
      </trkpt>
      <trkpt lat="46.09128" lon="6.67286">
        <ele>666</ele>
        <time>2019-05-24T08:28:42Z</time>
      </trkpt>
      <trkpt lat="46.09025" lon="6.67605">
        <ele>665</ele>
        <time>2019-05-24T08:29:25Z</time>
      </trkpt>
      <trkpt lat="46.08951" lon="6.67845">
        <ele>668</ele>
        <time>2019-05-24T08:29:58Z</time>
      </trkpt>
      <trkpt lat="46.08929" lon="6.67924">
        <ele>671</ele>
        <time>2019-05-24T08:30:08Z</time>
      </trkpt>
      <trkpt lat="46.08924" lon="6.67926">
        <ele>671</ele>
        <time>2019-05-24T08:30:09Z</time>
      </trkpt>
      <trkpt lat="46.08921" lon="6.67933">
        <ele>671</ele>
        <time>2019-05-24T08:30:10Z</time>
      </trkpt>
      <trkpt lat="46.0892" lon="6.67942">
        <ele>672</ele>
        <time>2019-05-24T08:30:11Z</time>
      </trkpt>
      <trkpt lat="46.08924" lon="6.67949">
        <ele>672</ele>
        <time>2019-05-24T08:30:12Z</time>
      </trkpt>
      <trkpt lat="46.08927" lon="6.6795">
        <ele>672</ele>
        <time>2019-05-24T08:30:13Z</time>
      </trkpt>
      <trkpt lat="46.08926" lon="6.6797">
        <ele>673</ele>
        <time>2019-05-24T08:30:15Z</time>
      </trkpt>
      <trkpt lat="46.08858" lon="6.687">
        <ele>685</ele>
        <time>2019-05-24T08:31:46Z</time>
      </trkpt>
      <trkpt lat="46.08877" lon="6.68716">
        <ele>685</ele>
        <time>2019-05-24T08:31:50Z</time>
      </trkpt>
      <trkpt lat="46.08959" lon="6.68796">
        <ele>684</ele>
        <time>2019-05-24T08:32:08Z</time>
      </trkpt>
      <trkpt lat="46.08979" lon="6.68813">
        <ele>685</ele>
        <time>2019-05-24T08:32:12Z</time>
      </trkpt>
      <trkpt lat="46.09048" lon="6.68863">
        <ele>688</ele>
        <time>2019-05-24T08:32:26Z</time>
      </trkpt>
      <trkpt lat="46.09098" lon="6.68916">
        <ele>691</ele>
        <time>2019-05-24T08:32:37Z</time>
      </trkpt>
      <trkpt lat="46.09122" lon="6.68954">
        <ele>694</ele>
        <time>2019-05-24T08:32:43Z</time>
      </trkpt>
      <trkpt lat="46.09127" lon="6.68966">
        <ele>695</ele>
        <time>2019-05-24T08:32:45Z</time>
      </trkpt>
      <trkpt lat="46.09132" lon="6.68985">
        <ele>697</ele>
        <time>2019-05-24T08:32:47Z</time>
      </trkpt>
      <trkpt lat="46.09136" lon="6.69014">
        <ele>700</ele>
        <time>2019-05-24T08:32:51Z</time>
      </trkpt>
      <trkpt lat="46.09138" lon="6.69048">
        <ele>705</ele>
        <time>2019-05-24T08:32:55Z</time>
      </trkpt>
      <trkpt lat="46.09137" lon="6.69064">
        <ele>708</ele>
        <time>2019-05-24T08:32:57Z</time>
      </trkpt>
      <trkpt lat="46.09133" lon="6.69078">
        <ele>709</ele>
        <time>2019-05-24T08:32:59Z</time>
      </trkpt>
      <trkpt lat="46.09123" lon="6.69095">
        <ele>711</ele>
        <time>2019-05-24T08:33:02Z</time>
      </trkpt>
      <trkpt lat="46.09115" lon="6.69117">
        <ele>712</ele>
        <time>2019-05-24T08:33:05Z</time>
      </trkpt>
      <trkpt lat="46.09111" lon="6.69139">
        <ele>714</ele>
        <time>2019-05-24T08:33:08Z</time>
      </trkpt>
      <trkpt lat="46.09107" lon="6.69216">
        <ele>721</ele>
        <time>2019-05-24T08:33:17Z</time>
      </trkpt>
      <trkpt lat="46.09104" lon="6.69239">
        <ele>722</ele>
        <time>2019-05-24T08:33:20Z</time>
      </trkpt>
      <trkpt lat="46.09106" lon="6.6928">
        <ele>727</ele>
        <time>2019-05-24T08:33:25Z</time>
      </trkpt>
      <trkpt lat="46.09104" lon="6.69305">
        <ele>730</ele>
        <time>2019-05-24T08:33:28Z</time>
      </trkpt>
      <trkpt lat="46.09097" lon="6.6934">
        <ele>734</ele>
        <time>2019-05-24T08:33:33Z</time>
      </trkpt>
      <trkpt lat="46.09094" lon="6.69348">
        <ele>735</ele>
        <time>2019-05-24T08:33:34Z</time>
      </trkpt>
      <trkpt lat="46.09087" lon="6.69359">
        <ele>735</ele>
        <time>2019-05-24T08:33:36Z</time>
      </trkpt>
      <trkpt lat="46.09079" lon="6.69363">
        <ele>735</ele>
        <time>2019-05-24T08:33:37Z</time>
      </trkpt>
      <trkpt lat="46.09069" lon="6.69359">
        <ele>734</ele>
        <time>2019-05-24T08:33:39Z</time>
      </trkpt>
      <trkpt lat="46.09056" lon="6.69348">
        <ele>732</ele>
        <time>2019-05-24T08:33:42Z</time>
      </trkpt>
      <trkpt lat="46.09048" lon="6.69348">
        <ele>731</ele>
        <time>2019-05-24T08:33:43Z</time>
      </trkpt>
      <trkpt lat="46.09045" lon="6.69351">
        <ele>731</ele>
        <time>2019-05-24T08:33:44Z</time>
      </trkpt>
      <trkpt lat="46.09035" lon="6.69372">
        <ele>732</ele>
        <time>2019-05-24T08:33:47Z</time>
      </trkpt>
      <trkpt lat="46.09027" lon="6.69402">
        <ele>734</ele>
        <time>2019-05-24T08:33:51Z</time>
      </trkpt>
      <trkpt lat="46.09019" lon="6.69449">
        <ele>736</ele>
        <time>2019-05-24T08:33:57Z</time>
      </trkpt>
      <trkpt lat="46.0902" lon="6.69461">
        <ele>737</ele>
        <time>2019-05-24T08:33:58Z</time>
      </trkpt>
      <trkpt lat="46.09025" lon="6.69487">
        <ele>739</ele>
        <time>2019-05-24T08:34:02Z</time>
      </trkpt>
      <trkpt lat="46.09033" lon="6.69509">
        <ele>741</ele>
        <time>2019-05-24T08:34:05Z</time>
      </trkpt>
      <trkpt lat="46.09039" lon="6.69534">
        <ele>742</ele>
        <time>2019-05-24T08:34:08Z</time>
      </trkpt>
      <trkpt lat="46.09052" lon="6.69629">
        <ele>752</ele>
        <time>2019-05-24T08:34:20Z</time>
      </trkpt>
      <trkpt lat="46.09057" lon="6.69657">
        <ele>756</ele>
        <time>2019-05-24T08:34:23Z</time>
      </trkpt>
      <trkpt lat="46.09058" lon="6.69669">
        <ele>758</ele>
        <time>2019-05-24T08:34:25Z</time>
      </trkpt>
      <trkpt lat="46.09047" lon="6.69708">
        <ele>758</ele>
        <time>2019-05-24T08:34:30Z</time>
      </trkpt>
      <trkpt lat="46.09046" lon="6.69723">
        <ele>759</ele>
        <time>2019-05-24T08:34:32Z</time>
      </trkpt>
      <trkpt lat="46.09055" lon="6.69793">
        <ele>764</ele>
        <time>2019-05-24T08:34:41Z</time>
      </trkpt>
      <trkpt lat="46.09061" lon="6.69848">
        <ele>767</ele>
        <time>2019-05-24T08:34:48Z</time>
      </trkpt>
      <trkpt lat="46.09071" lon="6.69915">
        <ele>773</ele>
        <time>2019-05-24T08:34:56Z</time>
      </trkpt>
      <trkpt lat="46.0908" lon="6.7001">
        <ele>779</ele>
        <time>2019-05-24T08:35:08Z</time>
      </trkpt>
      <trkpt lat="46.09098" lon="6.70112">
        <ele>784</ele>
        <time>2019-05-24T08:35:21Z</time>
      </trkpt>
      <trkpt lat="46.09103" lon="6.70192">
        <ele>788</ele>
        <time>2019-05-24T08:35:31Z</time>
      </trkpt>
      <trkpt lat="46.09111" lon="6.70256">
        <ele>793</ele>
        <time>2019-05-24T08:35:39Z</time>
      </trkpt>
      <trkpt lat="46.09111" lon="6.70287">
        <ele>796</ele>
        <time>2019-05-24T08:35:43Z</time>
      </trkpt>
      <trkpt lat="46.09105" lon="6.703">
        <ele>796</ele>
        <time>2019-05-24T08:35:45Z</time>
      </trkpt>
      <trkpt lat="46.09079" lon="6.70342">
        <ele>797</ele>
        <time>2019-05-24T08:35:52Z</time>
      </trkpt>
      <trkpt lat="46.09058" lon="6.70347">
        <ele>793</ele>
        <time>2019-05-24T08:35:55Z</time>
      </trkpt>
      <trkpt lat="46.09044" lon="6.70355">
        <ele>791</ele>
        <time>2019-05-24T08:35:58Z</time>
      </trkpt>
      <trkpt lat="46.09026" lon="6.70395">
        <ele>791</ele>
        <time>2019-05-24T08:36:04Z</time>
      </trkpt>
      <trkpt lat="46.09021" lon="6.70401">
        <ele>790</ele>
        <time>2019-05-24T08:36:05Z</time>
      </trkpt>
      <trkpt lat="46.08999" lon="6.7042">
        <ele>788</ele>
        <time>2019-05-24T08:36:10Z</time>
      </trkpt>
      <trkpt lat="46.08959" lon="6.70444">
        <ele>781</ele>
        <time>2019-05-24T08:36:17Z</time>
      </trkpt>
      <trkpt lat="46.0895" lon="6.70454">
        <ele>780</ele>
        <time>2019-05-24T08:36:19Z</time>
      </trkpt>
      <trkpt lat="46.08941" lon="6.70467">
        <ele>778</ele>
        <time>2019-05-24T08:36:22Z</time>
      </trkpt>
      <trkpt lat="46.08935" lon="6.70483">
        <ele>778</ele>
        <time>2019-05-24T08:36:24Z</time>
      </trkpt>
      <trkpt lat="46.08932" lon="6.70507">
        <ele>778</ele>
        <time>2019-05-24T08:36:27Z</time>
      </trkpt>
      <trkpt lat="46.0894" lon="6.7057">
        <ele>777</ele>
        <time>2019-05-24T08:36:35Z</time>
      </trkpt>
      <trkpt lat="46.0894" lon="6.70591">
        <ele>777</ele>
        <time>2019-05-24T08:36:37Z</time>
      </trkpt>
      <trkpt lat="46.08939" lon="6.70597">
        <ele>777</ele>
        <time>2019-05-24T08:36:38Z</time>
      </trkpt>
      <trkpt lat="46.08885" lon="6.70704">
        <ele>770</ele>
        <time>2019-05-24T08:36:54Z</time>
      </trkpt>
      <trkpt lat="46.0887" lon="6.70745">
        <ele>769</ele>
        <time>2019-05-24T08:37:00Z</time>
      </trkpt>
      <trkpt lat="46.0885" lon="6.70784">
        <ele>766</ele>
        <time>2019-05-24T08:37:06Z</time>
      </trkpt>
      <trkpt lat="46.08836" lon="6.70819">
        <ele>764</ele>
        <time>2019-05-24T08:37:11Z</time>
      </trkpt>
      <trkpt lat="46.08808" lon="6.70933">
        <ele>758</ele>
        <time>2019-05-24T08:37:26Z</time>
      </trkpt>
      <trkpt lat="46.08798" lon="6.71038">
        <ele>758</ele>
        <time>2019-05-24T08:37:39Z</time>
      </trkpt>
      <trkpt lat="46.0879" lon="6.71101">
        <ele>757</ele>
        <time>2019-05-24T08:37:47Z</time>
      </trkpt>
      <trkpt lat="46.08781" lon="6.71123">
        <ele>756</ele>
        <time>2019-05-24T08:37:50Z</time>
      </trkpt>
      <trkpt lat="46.08766" lon="6.71149">
        <ele>753</ele>
        <time>2019-05-24T08:37:54Z</time>
      </trkpt>
      <trkpt lat="46.0874" lon="6.71189">
        <ele>748</ele>
        <time>2019-05-24T08:38:01Z</time>
      </trkpt>
      <trkpt lat="46.08733" lon="6.7121">
        <ele>747</ele>
        <time>2019-05-24T08:38:04Z</time>
      </trkpt>
      <trkpt lat="46.08733" lon="6.71226">
        <ele>747</ele>
        <time>2019-05-24T08:38:06Z</time>
      </trkpt>
      <trkpt lat="46.08738" lon="6.71304">
        <ele>748</ele>
        <time>2019-05-24T08:38:16Z</time>
      </trkpt>
      <trkpt lat="46.08728" lon="6.71397">
        <ele>742</ele>
        <time>2019-05-24T08:38:27Z</time>
      </trkpt>
      <trkpt lat="46.08728" lon="6.71415">
        <ele>741</ele>
        <time>2019-05-24T08:38:30Z</time>
      </trkpt>
      <trkpt lat="46.08731" lon="6.71433">
        <ele>740</ele>
        <time>2019-05-24T08:38:32Z</time>
      </trkpt>
      <trkpt lat="46.08739" lon="6.71451">
        <ele>739</ele>
        <time>2019-05-24T08:38:34Z</time>
      </trkpt>
      <trkpt lat="46.0879" lon="6.71536">
        <ele>741</ele>
        <time>2019-05-24T08:38:48Z</time>
      </trkpt>
      <trkpt lat="46.08796" lon="6.71552">
        <ele>743</ele>
        <time>2019-05-24T08:38:51Z</time>
      </trkpt>
      <trkpt lat="46.08798" lon="6.71572">
        <ele>743</ele>
        <time>2019-05-24T08:38:53Z</time>
      </trkpt>
      <trkpt lat="46.08721" lon="6.71892">
        <ele>725</ele>
        <time>2019-05-24T08:39:35Z</time>
      </trkpt>
      <trkpt lat="46.08707" lon="6.71929">
        <ele>724</ele>
        <time>2019-05-24T08:39:40Z</time>
      </trkpt>
      <trkpt lat="46.08678" lon="6.71987">
        <ele>720</ele>
        <time>2019-05-24T08:39:49Z</time>
      </trkpt>
      <trkpt lat="46.08651" lon="6.72096">
        <ele>717</ele>
        <time>2019-05-24T08:40:03Z</time>
      </trkpt>
      <trkpt lat="46.08643" lon="6.72108">
        <ele>717</ele>
        <time>2019-05-24T08:40:05Z</time>
      </trkpt>
      <trkpt lat="46.08627" lon="6.72121">
        <ele>715</ele>
        <time>2019-05-24T08:40:08Z</time>
      </trkpt>
      <trkpt lat="46.08619" lon="6.72132">
        <ele>714</ele>
        <time>2019-05-24T08:40:10Z</time>
      </trkpt>
      <trkpt lat="46.08576" lon="6.72229">
        <ele>716</ele>
        <time>2019-05-24T08:40:25Z</time>
      </trkpt>
      <trkpt lat="46.08565" lon="6.72249">
        <ele>716</ele>
        <time>2019-05-24T08:40:28Z</time>
      </trkpt>
      <trkpt lat="46.08559" lon="6.72257">
        <ele>715</ele>
        <time>2019-05-24T08:40:29Z</time>
      </trkpt>
      <trkpt lat="46.08534" lon="6.72266">
        <ele>712</ele>
        <time>2019-05-24T08:40:34Z</time>
      </trkpt>
      <trkpt lat="46.0852" lon="6.72279">
        <ele>710</ele>
        <time>2019-05-24T08:40:37Z</time>
      </trkpt>
      <trkpt lat="46.08448" lon="6.72385">
        <ele>708</ele>
        <time>2019-05-24T08:40:55Z</time>
      </trkpt>
      <trkpt lat="46.08442" lon="6.72394">
        <ele>708</ele>
        <time>2019-05-24T08:40:57Z</time>
      </trkpt>
      <trkpt lat="46.08428" lon="6.72384">
        <ele>706</ele>
        <time>2019-05-24T08:40:59Z</time>
      </trkpt>
      <trkpt lat="46.08428" lon="6.7227">
        <ele>702</ele>
        <time>2019-05-24T08:41:14Z</time>
      </trkpt>
      <trkpt lat="46.08425" lon="6.72263">
        <ele>702</ele>
        <time>2019-05-24T08:41:15Z</time>
      </trkpt>
      <trkpt lat="46.08415" lon="6.72249">
        <ele>701</ele>
        <time>2019-05-24T08:41:17Z</time>
      </trkpt>
      <trkpt lat="46.08339" lon="6.72191">
        <ele>698</ele>
        <time>2019-05-24T08:41:32Z</time>
      </trkpt>
      <trkpt lat="46.08228" lon="6.72384">
        <ele>700</ele>
        <time>2019-05-24T08:42:03Z</time>
      </trkpt>
      <trkpt lat="46.08227" lon="6.72393">
        <ele>700</ele>
        <time>2019-05-24T08:42:04Z</time>
      </trkpt>
      <trkpt lat="46.08228" lon="6.72401">
        <ele>700</ele>
        <time>2019-05-24T08:42:05Z</time>
      </trkpt>
      <trkpt lat="46.08226" lon="6.72404">
        <ele>701</ele>
        <time>2019-05-24T08:42:06Z</time>
      </trkpt>
      <trkpt lat="46.08065" lon="6.72698">
        <ele>705</ele>
        <time>2019-05-24T08:42:52Z</time>
      </trkpt>
      <trkpt lat="46.08062" lon="6.72696">
        <ele>705</ele>
        <time>2019-05-24T08:42:53Z</time>
      </trkpt>
      <trkpt lat="46.08053" lon="6.72697">
        <ele>705</ele>
        <time>2019-05-24T08:42:54Z</time>
      </trkpt>
      <trkpt lat="46.08046" lon="6.72683">
        <ele>705</ele>
        <time>2019-05-24T08:42:56Z</time>
      </trkpt>
      <trkpt lat="46.08031" lon="6.72661">
        <ele>704</ele>
        <time>2019-05-24T08:43:00Z</time>
      </trkpt>
      <trkpt lat="46.08016" lon="6.72647">
        <ele>704</ele>
        <time>2019-05-24T08:43:03Z</time>
      </trkpt>
      <trkpt lat="46.07907" lon="6.72566">
        <ele>703</ele>
        <time>2019-05-24T08:43:25Z</time>
      </trkpt>
      <trkpt lat="46.0788" lon="6.72552">
        <ele>703</ele>
        <time>2019-05-24T08:43:30Z</time>
      </trkpt>
      <trkpt lat="46.07863" lon="6.72539">
        <ele>703</ele>
        <time>2019-05-24T08:43:34Z</time>
      </trkpt>
      <trkpt lat="46.07857" lon="6.72556">
        <ele>703</ele>
        <time>2019-05-24T08:43:36Z</time>
      </trkpt>
    </trkseg>
  </trk>
</gpx>